Observation data for Tarzan on 02/22/2019      Previous  Date  Next       Current Mesonet Observations  Soil Data  Daily Summary Page  Observations in Plain Language
KTA1 220600Z 10008KT 04/00 A2985 RMK A01 T004000-0  RH  075%=      5-min Rain = 0
KTA1 220601Z 09009KT 04/00 A2985 RMK A01 T004000-0  RH  075%=      5-min Rain = 0
KTA1 220602Z 10009KT 04/00 A2985 RMK A01 T004000-0  RH  075%=      5-min Rain = 0
KTA1 220603Z 09009KT 04/00 A2985 RMK A01 T004000-0  RH  075%=      5-min Rain = 0
KTA1 220604Z 10010KT 04/00 A2985 RMK A01 T004000-0  RH  075%=      5-min Rain = 0
KTA1 220605Z 10009KT 04/00 A2985 RMK A01 T003900-0  RH  075%=      5-min Rain = 0
KTA1 220606Z 10009KT 04/00 A2985 RMK A01 T003900-0  RH  075%=      5-min Rain = 0
KTA1 220607Z 10009KT 04/00 A2985 RMK A01 T003900-0  RH  075%=      5-min Rain = 0
KTA1 220608Z 10009KT 04/00 A2985 RMK A01 T003900-0  RH  076%=      5-min Rain = 0
KTA1 220609Z 10010KT 04/00 A2985 RMK A01 T003900-0  RH  076%=      5-min Rain = 0
KTA1 220610Z 10009KT 04/00 A2985 RMK A01 T003900-0  RH  076%=      5-min Rain = 0
KTA1 220611Z 10009KT 04/M00 A2985 RMK A01 T00381001  RH  076%=      5-min Rain = 0
KTA1 220612Z 10009KT 04/M00 A2985 RMK A01 T00381001  RH  076%=      5-min Rain = 0
KTA1 220613Z 10009KT 04/M00 A2985 RMK A01 T00371001  RH  076%=      5-min Rain = 0
KTA1 220614Z 10009KT 04/M00 A2986 RMK A01 T00371001  RH  076%=      5-min Rain = 0
KTA1 220615Z 10009KT 04/M00 A2986 RMK A01 T00361001  RH  077%=      5-min Rain = 0
KTA1 220616Z 10009KT 04/M00 A2986 RMK A01 T00361001  RH  077%=      5-min Rain = 0
KTA1 220617Z 10009KT 04/M00 A2986 RMK A01 T00351001  RH  077%=      5-min Rain = 0
KTA1 220618Z 10008KT 04/00 A2986 RMK A01 T003500-0  RH  077%=      5-min Rain = 0
KTA1 220619Z 10008KT 04/00 A2986 RMK A01 T003500-0  RH  078%=      5-min Rain = 0
KTA1 220620Z 10009KT 04/00 A2986 RMK A01 T003500-0  RH  078%=      5-min Rain = 0
KTA1 220621Z 10008KT 04/00 A2986 RMK A01 T00350000  RH  078%=      5-min Rain = 0
KTA1 220622Z 10008KT 04/00 A2986 RMK A01 T003500-0  RH  078%=      5-min Rain = 0
KTA1 220623Z 10010KT 04/00 A2986 RMK A01 T00350000  RH  078%=      5-min Rain = 0
KTA1 220624Z 10010KT 04/00 A2986 RMK A01 T00350001  RH  079%=      5-min Rain = 0
KTA1 220625Z 10009KT 04/00 A2986 RMK A01 T00360002  RH  078%=      5-min Rain = 0
KTA1 220626Z 10009KT 04/00 A2986 RMK A01 T00350001  RH  078%=      5-min Rain = 0
KTA1 220627Z 10009KT 04/00 A2986 RMK A01 T00350002  RH  078%=      5-min Rain = 0
KTA1 220628Z 10009KT 04/00 A2986 RMK A01 T00350001  RH  078%=      5-min Rain = 0
KTA1 220629Z 10009KT 04/00 A2986 RMK A01 T00350002  RH  079%=      5-min Rain = 0
KTA1 220630Z 10009KT 04/00 A2986 RMK A01 T00350002  RH  079%=      5-min Rain = 0
KTA1 220631Z 10009KT 04/00 A2986 RMK A01 T00350002  RH  079%=      5-min Rain = 0
KTA1 220632Z 10009KT 04/00 A2986 RMK A01 T00350002  RH  079%=      5-min Rain = 0
KTA1 220633Z 10008KT 04/00 A2986 RMK A01 T00350002  RH  079%=      5-min Rain = 0
KTA1 220634Z 10008KT 04/00 A2986 RMK A01 T00350002  RH  079%=      5-min Rain = 0
KTA1 220635Z 10008KT 04/00 A2986 RMK A01 T00350001  RH  079%=      5-min Rain = 0
KTA1 220636Z 10008KT 03/00 A2986 RMK A01 T00340002  RH  079%=      5-min Rain = 0
KTA1 220637Z 10009KT 04/00 A2986 RMK A01 T00350003  RH  080%=      5-min Rain = 0
KTA1 220638Z 10009KT 04/00 A2986 RMK A01 T00350003  RH  079%=      5-min Rain = 0
KTA1 220639Z 10009KT 04/00 A2986 RMK A01 T00360003  RH  079%=      5-min Rain = 0
KTA1 220640Z 11010KT 04/00 A2986 RMK A01 T00360004  RH  079%=      5-min Rain = 0
KTA1 220641Z 11009KT 04/01 A2986 RMK A01 T00370005  RH  080%=      5-min Rain = 0
KTA1 220642Z 11010KT 04/01 A2985 RMK A01 T00370005  RH  080%=      5-min Rain = 0
KTA1 220643Z 11010KT 04/01 A2985 RMK A01 T00370005  RH  080%=      5-min Rain = 0
KTA1 220644Z 11011KT 04/01 A2985 RMK A01 T00370005  RH  079%=      5-min Rain = 0
KTA1 220645Z 11011KT 04/01 A2985 RMK A01 T00380006  RH  080%=      5-min Rain = 0
KTA1 220646Z 11011KT 04/01 A2985 RMK A01 T00380006  RH  080%=      5-min Rain = 0
KTA1 220647Z 11010KT 04/01 A2985 RMK A01 T00380007  RH  080%=      5-min Rain = 0
KTA1 220648Z 11010KT 04/01 A2985 RMK A01 T00390007  RH  080%=      5-min Rain = 0
KTA1 220649Z 10009KT 04/01 A2985 RMK A01 T00390007  RH  080%=      5-min Rain = 0
KTA1 220650Z 11011KT 04/01 A2985 RMK A01 T00380007  RH  080%=      5-min Rain = 0
KTA1 220651Z 11010KT 04/01 A2985 RMK A01 T00390007  RH  080%=      5-min Rain = 0
KTA1 220652Z 11010KT 04/01 A2985 RMK A01 T00390007  RH  080%=      5-min Rain = 0
KTA1 220653Z 11010KT 04/01 A2985 RMK A01 T00390007  RH  080%=      5-min Rain = 0
KTA1 220654Z 11010KT 04/01 A2985 RMK A01 T00390008  RH  080%=      5-min Rain = 0
KTA1 220655Z 11009KT 04/01 A2985 RMK A01 T00390008  RH  080%=      5-min Rain = 0
KTA1 220656Z 11010KT 04/01 A2985 RMK A01 T00390008  RH  080%=      5-min Rain = 0
KTA1 220657Z 11010KT 04/01 A2985 RMK A01 T00390008  RH  080%=      5-min Rain = 0
KTA1 220658Z 11010KT 04/01 A2985 RMK A01 T00390008  RH  080%=      5-min Rain = 0
KTA1 220659Z 11010KT 04/01 A2985 RMK A01 T00390008  RH  080%=      5-min Rain = 0
KTA1 220700Z 11010KT 04/01 A2985 RMK A01 T00390008  RH  080%=      5-min Rain = 0
KTA1 220701Z 11009KT 04/01 A2985 RMK A01 T00390008  RH  080%=      5-min Rain = 0
KTA1 220702Z 11010KT 04/01 A2985 RMK A01 T00390008  RH  080%=      5-min Rain = 0
KTA1 220703Z 11010KT 04/01 A2985 RMK A01 T00390008  RH  080%=      5-min Rain = 0
KTA1 220704Z 11009KT 04/01 A2985 RMK A01 T00380008  RH  081%=      5-min Rain = 0
KTA1 220705Z 11009KT 04/01 A2984 RMK A01 T00380008  RH  080%=      5-min Rain = 0
KTA1 220706Z 11010KT 04/01 A2984 RMK A01 T00380007  RH  081%=      5-min Rain = 0
KTA1 220707Z 11008KT 04/01 A2984 RMK A01 T00380008  RH  081%=      5-min Rain = 0
KTA1 220708Z 11008KT 04/01 A2984 RMK A01 T00380008  RH  081%=      5-min Rain = 0
KTA1 220709Z 10008KT 04/01 A2984 RMK A01 T00370007  RH  081%=      5-min Rain = 0
KTA1 220710Z 10009KT 04/01 A2984 RMK A01 T00370007  RH  081%=      5-min Rain = 0
KTA1 220711Z 11009KT 04/01 A2984 RMK A01 T00370008  RH  081%=      5-min Rain = 0
KTA1 220712Z 10009KT 04/01 A2984 RMK A01 T00370008  RH  082%=      5-min Rain = 0
KTA1 220713Z 10009KT 04/01 A2984 RMK A01 T00360008  RH  082%=      5-min Rain = 0
KTA1 220714Z 11008KT 04/01 A2984 RMK A01 T00360008  RH  082%=      5-min Rain = 0
KTA1 220715Z 10009KT 04/01 A2984 RMK A01 T00360008  RH  082%=      5-min Rain = 0
KTA1 220716Z 11009KT 04/01 A2984 RMK A01 T00360008  RH  082%=      5-min Rain = 0
KTA1 220717Z 10009KT 04/01 A2984 RMK A01 T00360008  RH  082%=      5-min Rain = 0
KTA1 220718Z 10009KT 04/01 A2984 RMK A01 T00360008  RH  082%=      5-min Rain = 0
KTA1 220719Z 10009KT 04/01 A2984 RMK A01 T00360008  RH  082%=      5-min Rain = 0
KTA1 220720Z 10009KT 04/01 A2984 RMK A01 T00360008  RH  082%=      5-min Rain = 0
KTA1 220721Z 10008KT 04/01 A2984 RMK A01 T00360008  RH  082%=      5-min Rain = 0
KTA1 220722Z 10009KT 04/01 A2984 RMK A01 T00350008  RH  082%=      5-min Rain = 0
KTA1 220723Z 10008KT 04/01 A2984 RMK A01 T00350008  RH  083%=      5-min Rain = 0
KTA1 220724Z 10009KT 04/01 A2984 RMK A01 T00350008  RH  083%=      5-min Rain = 0
KTA1 220725Z 10008KT 04/01 A2984 RMK A01 T00350009  RH  083%=      5-min Rain = 0
KTA1 220726Z 10008KT 04/01 A2984 RMK A01 T00350008  RH  083%=      5-min Rain = 0
KTA1 220727Z 10008KT 04/01 A2984 RMK A01 T00350008  RH  083%=      5-min Rain = 0
KTA1 220728Z 10008KT 04/01 A2984 RMK A01 T00350009  RH  083%=      5-min Rain = 0
KTA1 220729Z 10008KT 03/01 A2984 RMK A01 T00340008  RH  083%=      5-min Rain = 0
KTA1 220730Z 10008KT 04/01 A2984 RMK A01 T00350009  RH  083%=      5-min Rain = 0
KTA1 220731Z 10007KT 04/01 A2984 RMK A01 T00350009  RH  083%=      5-min Rain = 0
KTA1 220732Z 10007KT 03/01 A2984 RMK A01 T00340008  RH  083%=      5-min Rain = 0
KTA1 220733Z 10008KT 03/01 A2984 RMK A01 T00340008  RH  083%=      5-min Rain = 0
KTA1 220734Z 10007KT 03/01 A2984 RMK A01 T00330008  RH  083%=      5-min Rain = 0
KTA1 220735Z 11007KT 03/01 A2984 RMK A01 T00330008  RH  084%=      5-min Rain = 0
KTA1 220736Z 10007KT 03/01 A2984 RMK A01 T00330008  RH  084%=      5-min Rain = 0
KTA1 220737Z 10007KT 03/01 A2984 RMK A01 T00330008  RH  084%=      5-min Rain = 0
KTA1 220738Z 10007KT 03/01 A2984 RMK A01 T00330008  RH  084%=      5-min Rain = 0
KTA1 220739Z 11006KT 03/01 A2985 RMK A01 T00330008  RH  084%=      5-min Rain = 0
KTA1 220740Z 10006KT 03/01 A2985 RMK A01 T00330008  RH  084%=      5-min Rain = 0
KTA1 220741Z 10006KT 03/01 A2985 RMK A01 T00320007  RH  084%=      5-min Rain = 0
KTA1 220742Z 11006KT 03/01 A2985 RMK A01 T00320008  RH  084%=      5-min Rain = 0
KTA1 220743Z 11006KT 03/01 A2985 RMK A01 T00320008  RH  084%=      5-min Rain = 0
KTA1 220744Z 11006KT 03/01 A2985 RMK A01 T00320008  RH  084%=      5-min Rain = 0
KTA1 220745Z 11006KT 03/01 A2985 RMK A01 T00320008  RH  084%=      5-min Rain = 0
KTA1 220746Z 11006KT 03/01 A2985 RMK A01 T00320008  RH  084%=      5-min Rain = 0
KTA1 220747Z 11006KT 03/01 A2985 RMK A01 T00320008  RH  084%=      5-min Rain = 0
KTA1 220748Z 11006KT 03/01 A2985 RMK A01 T00320008  RH  084%=      5-min Rain = 0
KTA1 220749Z 11006KT 03/01 A2985 RMK A01 T00310007  RH  084%=      5-min Rain = 0
KTA1 220750Z 11006KT 03/01 A2984 RMK A01 T00310008  RH  085%=      5-min Rain = 0
KTA1 220751Z 11007KT 03/01 A2984 RMK A01 T00310007  RH  085%=      5-min Rain = 0
KTA1 220752Z 11007KT 03/01 A2985 RMK A01 T00310008  RH  085%=      5-min Rain = 0
KTA1 220753Z 11007KT 03/01 A2985 RMK A01 T00310008  RH  085%=      5-min Rain = 0
KTA1 220754Z 11007KT 03/01 A2985 RMK A01 T00300007  RH  085%=      5-min Rain = 0
KTA1 220755Z 11008KT 03/01 A2985 RMK A01 T00300007  RH  085%=      5-min Rain = 0
KTA1 220756Z 11008KT 03/01 A2985 RMK A01 T00290007  RH  085%=      5-min Rain = 0
KTA1 220757Z 11007KT 03/01 A2985 RMK A01 T00290006  RH  085%=      5-min Rain = 0
KTA1 220758Z 11007KT 03/01 A2985 RMK A01 T00290006  RH  085%=      5-min Rain = 0
KTA1 220759Z 11006KT 03/01 A2985 RMK A01 T00280006  RH  085%=      5-min Rain = 0
KTA1 220800Z 11006KT 03/01 A2985 RMK A01 T00270005  RH  085%=      5-min Rain = 0
KTA1 220801Z 11006KT 03/01 A2985 RMK A01 T00270005  RH  086%=      5-min Rain = 0
KTA1 220802Z 11005KT 03/01 A2985 RMK A01 T00260005  RH  086%=      5-min Rain = 0
KTA1 220803Z 10005KT 03/00 A2985 RMK A01 T00260004  RH  086%=      5-min Rain = 0
KTA1 220804Z 10004KT 03/00 A2985 RMK A01 T00250004  RH  086%=      5-min Rain = 0
KTA1 220805Z 10004KT 03/01 A2985 RMK A01 T00250005  RH  087%=      5-min Rain = 0
KTA1 220806Z 10004KT 03/01 A2985 RMK A01 T00250005  RH  087%=      5-min Rain = 0
KTA1 220807Z 10003KT 03/01 A2985 RMK A01 T00250005  RH  087%=      5-min Rain = 0
KTA1 220808Z 09002KT 03/00 A2985 RMK A01 T00250004  RH  086%=      5-min Rain = 0
KTA1 220809Z 08001KT 02/00 A2985 RMK A01 T00240002  RH  086%=      5-min Rain = 0
KTA1 220810Z 06001KT 02/00 A2985 RMK A01 T00230002  RH  086%=      5-min Rain = 0
KTA1 220811Z 06001KT 02/00 A2985 RMK A01 T00220001  RH  086%=      5-min Rain = 0
KTA1 220812Z 07001KT 02/M00 A2985 RMK A01 T00201001  RH  086%=      5-min Rain = 0
KTA1 220813Z 06001KT 02/M00 A2985 RMK A01 T00191002  RH  086%=      5-min Rain = 0
KTA1 220814Z 05001KT 02/M00 A2985 RMK A01 T00181003  RH  086%=      5-min Rain = 0
KTA1 220815Z 05001KT 02/M00 A2985 RMK A01 T00171003  RH  086%=      5-min Rain = 0
KTA1 220816Z 06001KT 02/M00 A2985 RMK A01 T00171003  RH  087%=      5-min Rain = 0
KTA1 220817Z 06002KT 02/M00 A2985 RMK A01 T00171003  RH  087%=      5-min Rain = 0
KTA1 220818Z 07002KT 02/M00 A2985 RMK A01 T00171003  RH  087%=      5-min Rain = 0
KTA1 220819Z 08002KT 02/M00 A2985 RMK A01 T00171002  RH  087%=      5-min Rain = 0
KTA1 220820Z 08003KT 02/M00 A2985 RMK A01 T00171003  RH  087%=      5-min Rain = 0
KTA1 220821Z 08003KT 02/M01 A2985 RMK A01 T00161005  RH  086%=      5-min Rain = 0
KTA1 220822Z 08003KT 02/M01 A2985 RMK A01 T00151006  RH  086%=      5-min Rain = 0
KTA1 220823Z 08003KT 01/M01 A2985 RMK A01 T00141007  RH  086%=      5-min Rain = 0
KTA1 220824Z 08003KT 01/M01 A2985 RMK A01 T00141006  RH  086%=      5-min Rain = 0
KTA1 220825Z 07003KT 01/M01 A2985 RMK A01 T00141006  RH  087%=      5-min Rain = 0
KTA1 220826Z 07003KT 01/M01 A2985 RMK A01 T00141005  RH  087%=      5-min Rain = 0
KTA1 220827Z 07003KT 01/M00 A2985 RMK A01 T00141004  RH  088%=      5-min Rain = 0
KTA1 220828Z 07003KT 01/M00 A2985 RMK A01 T00141004  RH  088%=      5-min Rain = 0
KTA1 220829Z 07003KT 01/M00 A2986 RMK A01 T00141004  RH  088%=      5-min Rain = 0
KTA1 220830Z 07002KT 02/M00 A2986 RMK A01 T00151003  RH  088%=      5-min Rain = 0
KTA1 220831Z 07002KT 02/M00 A2986 RMK A01 T00151003  RH  088%=      5-min Rain = 0
KTA1 220832Z 07002KT 02/M00 A2986 RMK A01 T00161001  RH  089%=      5-min Rain = 0
KTA1 220833Z 07002KT 02/00 A2986 RMK A01 T00160000  RH  089%=      5-min Rain = 0
KTA1 220834Z 06002KT 02/00 A2986 RMK A01 T00170001  RH  089%=      5-min Rain = 0
KTA1 220835Z 06002KT 02/00 A2986 RMK A01 T00170001  RH  089%=      5-min Rain = 0
KTA1 220836Z 06002KT 02/00 A2986 RMK A01 T00180001  RH  088%=      5-min Rain = 0
KTA1 220837Z 06002KT 02/00 A2986 RMK A01 T00180001  RH  088%=      5-min Rain = 0
KTA1 220838Z 06002KT 02/00 A2986 RMK A01 T001800-0  RH  088%=      5-min Rain = 0
KTA1 220839Z 05002KT 02/00 A2986 RMK A01 T001800-0  RH  088%=      5-min Rain = 0
KTA1 220840Z 04003KT 02/00 A2986 RMK A01 T001800-0  RH  088%=      5-min Rain = 0
KTA1 220841Z 04003KT 02/00 A2986 RMK A01 T00180000  RH  088%=      5-min Rain = 0
KTA1 220842Z 03004KT 02/M00 A2986 RMK A01 T00181001  RH  088%=      5-min Rain = 0
KTA1 220843Z 03004KT 02/M00 A2986 RMK A01 T00181001  RH  087%=      5-min Rain = 0
KTA1 220844Z 03004KT 02/M00 A2986 RMK A01 T00171002  RH  087%=      5-min Rain = 0
KTA1 220845Z 03004KT 02/M00 A2986 RMK A01 T00171004  RH  086%=      5-min Rain = 0
KTA1 220846Z 03004KT 02/M01 A2986 RMK A01 T00151007  RH  086%=      5-min Rain = 0
KTA1 220847Z 02004KT 01/M01 A2986 RMK A01 T00131008  RH  086%=      5-min Rain = 0
KTA1 220848Z 02004KT 01/M01 A2986 RMK A01 T00121008  RH  086%=      5-min Rain = 0
KTA1 220849Z 02003KT 01/M01 A2986 RMK A01 T00111009  RH  087%=      5-min Rain = 0
KTA1 220850Z 02004KT 01/M01 A2986 RMK A01 T00111008  RH  087%=      5-min Rain = 0
KTA1 220851Z 02004KT 01/M01 A2986 RMK A01 T00111007  RH  088%=      5-min Rain = 0
KTA1 220852Z 03004KT 01/M01 A2986 RMK A01 T00111007  RH  088%=      5-min Rain = 0
KTA1 220853Z 03004KT 01/M01 A2986 RMK A01 T00111008  RH  087%=      5-min Rain = 0
KTA1 220854Z 03004KT 01/M01 A2986 RMK A01 T00091011  RH  087%=      5-min Rain = 0
KTA1 220855Z 03004KT 01/M01 A2986 RMK A01 T00081012  RH  087%=      5-min Rain = 0
KTA1 220856Z 03003KT 01/M01 A2986 RMK A01 T00071012  RH  087%=      5-min Rain = 0
KTA1 220857Z 03003KT 01/M01 A2986 RMK A01 T00061012  RH  088%=      5-min Rain = 0
KTA1 220858Z 03003KT 01/M01 A2986 RMK A01 T00061011  RH  088%=      5-min Rain = 0
KTA1 220859Z 03003KT 01/M01 A2986 RMK A01 T00061011  RH  088%=      5-min Rain = 0
KTA1 220900Z 03003KT 01/M01 A2986 RMK A01 T00061010  RH  089%=      5-min Rain = 0
KTA1 220901Z 03003KT 01/M01 A2986 RMK A01 T00071008  RH  090%=      5-min Rain = 0
KTA1 220902Z 03003KT 01/M01 A2986 RMK A01 T00081007  RH  090%=      5-min Rain = 0
KTA1 220903Z 03004KT 01/M01 A2986 RMK A01 T00091006  RH  090%=      5-min Rain = 0
KTA1 220904Z 03004KT 01/M01 A2986 RMK A01 T00101005  RH  090%=      5-min Rain = 0
KTA1 220905Z 03003KT 01/M01 A2986 RMK A01 T00101005  RH  089%=      5-min Rain = 0
KTA1 220906Z 03003KT 01/M01 A2986 RMK A01 T00111005  RH  089%=      5-min Rain = 0
KTA1 220907Z 03004KT 01/M01 A2986 RMK A01 T00111005  RH  089%=      5-min Rain = 0
KTA1 220908Z 03004KT 01/M01 A2986 RMK A01 T00111005  RH  089%=      5-min Rain = 0
KTA1 220909Z 03004KT 01/M00 A2986 RMK A01 T00121004  RH  089%=      5-min Rain = 0
KTA1 220910Z 02004KT 01/M01 A2986 RMK A01 T00121005  RH  088%=      5-min Rain = 0
KTA1 220911Z 02004KT 01/M01 A2986 RMK A01 T00121005  RH  088%=      5-min Rain = 0
KTA1 220912Z 01005KT 01/M01 A2986 RMK A01 T00121005  RH  089%=      5-min Rain = 0
KTA1 220913Z 02005KT 01/M00 A2986 RMK A01 T00121004  RH  089%=      5-min Rain = 0
KTA1 220914Z 02006KT 01/M01 A2986 RMK A01 T00131006  RH  088%=      5-min Rain = 0
KTA1 220915Z 02006KT 01/M01 A2986 RMK A01 T00101011  RH  086%=      5-min Rain = 0
KTA1 220916Z 01006KT 01/M01 A2986 RMK A01 T00071014  RH  086%=      5-min Rain = 0
KTA1 220917Z 01006KT 01/M01 A2986 RMK A01 T00061014  RH  086%=      5-min Rain = 0
KTA1 220918Z 01007KT 00/M02 A2986 RMK A01 T00041015  RH  087%=      5-min Rain = 0
KTA1 220919Z 02007KT 00/M02 A2986 RMK A01 T00031016  RH  087%=      5-min Rain = 0
KTA1 220920Z 03007KT 00/M02 A2986 RMK A01 T00031015  RH  088%=      5-min Rain = 0
KTA1 220921Z 03008KT 00/M01 A2986 RMK A01 T00021014  RH  088%=      5-min Rain = 0
KTA1 220922Z 04008KT 00/M01 A2986 RMK A01 T00021014  RH  089%=      5-min Rain = 0
KTA1 220923Z 04008KT 00/M01 A2986 RMK A01 T00021014  RH  089%=      5-min Rain = 0
KTA1 220924Z 04008KT 00/M02 A2986 RMK A01 T00011015  RH  089%=      5-min Rain = 0
KTA1 220925Z 04008KT 00/M01 A2986 RMK A01 T00011014  RH  089%=      5-min Rain = 0
KTA1 220926Z 04008KT 00/M02 A2985 RMK A01 T00011015  RH  089%=      5-min Rain = 0
KTA1 220927Z 04007KT 00/M02 A2985 RMK A01 T00011015  RH  090%=      5-min Rain = 0
KTA1 220928Z 04008KT 00/M01 A2985 RMK A01 T00011014  RH  090%=      5-min Rain = 0
KTA1 220929Z 05007KT 00/M01 A2986 RMK A01 T00011014  RH  090%=      5-min Rain = 0
KTA1 220930Z 05007KT 00/02 A2986 RMK A01 T00000-15  RH  089%=      5-min Rain = 0
KTA1 220931Z 05006KT 00/02 A2986 RMK A01 T00000-15  RH  089%=      5-min Rain = 0
KTA1 220932Z 05005KT 00/02 A2986 RMK A01 T00000-15  RH  090%=      5-min Rain = 0
KTA1 220933Z 05005KT 00/02 A2986 RMK A01 T00000-15  RH  090%=      5-min Rain = 0
KTA1 220934Z 05004KT 00/01 A2986 RMK A01 T00000-14  RH  090%=      5-min Rain = 0
KTA1 220935Z 05004KT 00/M01 A2986 RMK A01 T00011013  RH  090%=      5-min Rain = 0
KTA1 220936Z 06005KT 00/M01 A2986 RMK A01 T00011013  RH  090%=      5-min Rain = 0
KTA1 220937Z 07005KT 00/M01 A2986 RMK A01 T00021013  RH  090%=      5-min Rain = 0
KTA1 220938Z 06005KT 00/M01 A2986 RMK A01 T00021013  RH  090%=      5-min Rain = 0
KTA1 220939Z 06005KT 00/M01 A2986 RMK A01 T00021013  RH  090%=      5-min Rain = 0
KTA1 220940Z 06005KT 00/M01 A2986 RMK A01 T00021012  RH  090%=      5-min Rain = 0
KTA1 220941Z 06005KT 00/M01 A2986 RMK A01 T00031010  RH  091%=      5-min Rain = 0
KTA1 220942Z 06005KT 00/M01 A2986 RMK A01 T00041010  RH  091%=      5-min Rain = 0
KTA1 220943Z 06005KT 00/M01 A2986 RMK A01 T00041010  RH  090%=      5-min Rain = 0
KTA1 220944Z 06005KT 00/M01 A2986 RMK A01 T00041011  RH  090%=      5-min Rain = 0
KTA1 220945Z 06005KT 00/M01 A2986 RMK A01 T00031012  RH  090%=      5-min Rain = 0
KTA1 220946Z 06005KT 00/M01 A2986 RMK A01 T00041011  RH  090%=      5-min Rain = 0
KTA1 220947Z 06005KT 00/M01 A2986 RMK A01 T00041009  RH  091%=      5-min Rain = 0
KTA1 220948Z 06006KT 01/M01 A2986 RMK A01 T00051008  RH  091%=      5-min Rain = 0
KTA1 220949Z 06006KT 01/M01 A2986 RMK A01 T00061007  RH  091%=      5-min Rain = 0
KTA1 220950Z 06006KT 01/M01 A2986 RMK A01 T00071006  RH  091%=      5-min Rain = 0
KTA1 220951Z 06006KT 01/M01 A2986 RMK A01 T00071007  RH  091%=      5-min Rain = 0
KTA1 220952Z 06007KT 01/M01 A2986 RMK A01 T00071008  RH  090%=      5-min Rain = 0
KTA1 220953Z 06007KT 01/M01 A2986 RMK A01 T00061009  RH  090%=      5-min Rain = 0
KTA1 220954Z 06008KT 01/M01 A2986 RMK A01 T00051011  RH  089%=      5-min Rain = 0
KTA1 220955Z 06008KT 00/M01 A2985 RMK A01 T00041012  RH  089%=      5-min Rain = 0
KTA1 220956Z 06009KT 00/M01 A2985 RMK A01 T00041011  RH  090%=      5-min Rain = 0
KTA1 220957Z 06008KT 00/M01 A2985 RMK A01 T00041010  RH  090%=      5-min Rain = 0
KTA1 220958Z 06009KT 01/M01 A2985 RMK A01 T00051009  RH  090%=      5-min Rain = 0
KTA1 220959Z 06009KT 01/M01 A2986 RMK A01 T00051010  RH  090%=      5-min Rain = 0
KTA1 221000Z 06008KT 01/M01 A2986 RMK A01 T00051008  RH  091%=      5-min Rain = 0
KTA1 221001Z 06008KT 01/M01 A2986 RMK A01 T00061008  RH  091%=      5-min Rain = 0
KTA1 221002Z 06008KT 01/M01 A2986 RMK A01 T00061008  RH  090%=      5-min Rain = 0
KTA1 221003Z 06008KT 01/M01 A2986 RMK A01 T00061008  RH  090%=      5-min Rain = 0
KTA1 221004Z 06007KT 01/M01 A2986 RMK A01 T00061008  RH  090%=      5-min Rain = 0
KTA1 221005Z 07007KT 01/M01 A2986 RMK A01 T00061008  RH  091%=      5-min Rain = 0
KTA1 221006Z 07007KT 01/M01 A2986 RMK A01 T00061008  RH  091%=      5-min Rain = 0
KTA1 221007Z 07006KT 01/M01 A2986 RMK A01 T00061008  RH  091%=      5-min Rain = 0
KTA1 221008Z 06006KT 01/M01 A2986 RMK A01 T00061008  RH  091%=      5-min Rain = 0
KTA1 221009Z 06006KT 01/M01 A2986 RMK A01 T00051009  RH  090%=      5-min Rain = 0
KTA1 221010Z 06006KT 01/M01 A2986 RMK A01 T00051010  RH  090%=      5-min Rain = 0
KTA1 221011Z 06006KT 00/M01 A2986 RMK A01 T00041010  RH  090%=      5-min Rain = 0
KTA1 221012Z 07006KT 00/M01 A2986 RMK A01 T00041010  RH  091%=      5-min Rain = 0
KTA1 221013Z 07006KT 00/M01 A2986 RMK A01 T00031010  RH  091%=      5-min Rain = 0
KTA1 221014Z 07006KT 00/M01 A2986 RMK A01 T00041009  RH  091%=      5-min Rain = 0
KTA1 221015Z 07006KT 00/M01 A2986 RMK A01 T00041008  RH  092%=      5-min Rain = 0
KTA1 221016Z 07005KT 01/M01 A2986 RMK A01 T00051007  RH  092%=      5-min Rain = 0
KTA1 221017Z 07005KT 01/M01 A2986 RMK A01 T00061006  RH  092%=      5-min Rain = 0
KTA1 221018Z 07005KT 01/M01 A2986 RMK A01 T00061006  RH  092%=      5-min Rain = 0
KTA1 221019Z 07005KT 01/M01 A2986 RMK A01 T00061006  RH  092%=      5-min Rain = 0
KTA1 221020Z 07005KT 01/M01 A2986 RMK A01 T00061006  RH  092%=      5-min Rain = 0
KTA1 221021Z 08005KT 01/M01 A2986 RMK A01 T00061006  RH  091%=      5-min Rain = 0
KTA1 221022Z 07006KT 01/M01 A2986 RMK A01 T00061006  RH  091%=      5-min Rain = 0
KTA1 221023Z 07007KT 01/M01 A2986 RMK A01 T00061006  RH  092%=      5-min Rain = 0
KTA1 221024Z 08007KT 01/M01 A2986 RMK A01 T00061006  RH  092%=      5-min Rain = 0
KTA1 221025Z 07008KT 01/M01 A2986 RMK A01 T00061006  RH  092%=      5-min Rain = 0
KTA1 221026Z 07008KT 01/M01 A2986 RMK A01 T00061007  RH  092%=      5-min Rain = 0
KTA1 221027Z 07008KT 01/M01 A2986 RMK A01 T00061006  RH  092%=      5-min Rain = 0
KTA1 221028Z 07008KT 01/M01 A2986 RMK A01 T00051006  RH  092%=      5-min Rain = 0
KTA1 221029Z 07008KT 01/M01 A2986 RMK A01 T00061006  RH  092%=      5-min Rain = 0
KTA1 221030Z 07008KT 01/M01 A2986 RMK A01 T00061005  RH  092%=      5-min Rain = 0
KTA1 221031Z 07008KT 01/M00 A2986 RMK A01 T00061004  RH  092%=      5-min Rain = 0
KTA1 221032Z 08008KT 01/M00 A2986 RMK A01 T00061004  RH  093%=      5-min Rain = 0
KTA1 221033Z 08008KT 01/M00 A2986 RMK A01 T00071004  RH  092%=      5-min Rain = 0
KTA1 221034Z 08008KT 01/M00 A2986 RMK A01 T00071004  RH  092%=      5-min Rain = 0
KTA1 221035Z 08007KT 01/M00 A2986 RMK A01 T00081003  RH  092%=      5-min Rain = 0
KTA1 221036Z 08008KT 01/M00 A2986 RMK A01 T00081003  RH  092%=      5-min Rain = 0
KTA1 221037Z 08007KT 01/M00 A2986 RMK A01 T00081003  RH  093%=      5-min Rain = 0
KTA1 221038Z 08007KT 01/M00 A2986 RMK A01 T00081003  RH  092%=      5-min Rain = 0
KTA1 221039Z 08007KT 01/M00 A2986 RMK A01 T00081003  RH  092%=      5-min Rain = 0
KTA1 221040Z 08007KT 01/M00 A2986 RMK A01 T00081003  RH  092%=      5-min Rain = 0
KTA1 221041Z 08008KT 01/M00 A2986 RMK A01 T00091001  RH  093%=      5-min Rain = 0
KTA1 221042Z 08008KT 01/00 A2986 RMK A01 T00100000  RH  093%=      5-min Rain = 0
KTA1 221043Z 08008KT 01/00 A2986 RMK A01 T00110001  RH  093%=      5-min Rain = 0
KTA1 221044Z 08007KT 01/00 A2986 RMK A01 T00120002  RH  093%=      5-min Rain = 0
KTA1 221045Z 08007KT 01/00 A2986 RMK A01 T00120002  RH  093%=      5-min Rain = 0
KTA1 221046Z 08007KT 01/00 A2985 RMK A01 T00120002  RH  093%=      5-min Rain = 0
KTA1 221047Z 08006KT 01/00 A2985 RMK A01 T00120002  RH  093%=      5-min Rain = 0
KTA1 221048Z 08006KT 01/00 A2985 RMK A01 T00130002  RH  092%=      5-min Rain = 0
KTA1 221049Z 08007KT 01/00 A2985 RMK A01 T00130002  RH  092%=      5-min Rain = 0
KTA1 221050Z 08007KT 01/00 A2985 RMK A01 T00130002  RH  092%=      5-min Rain = 0
KTA1 221051Z 08007KT 01/00 A2985 RMK A01 T00130002  RH  092%=      5-min Rain = 0
KTA1 221052Z 08007KT 01/00 A2985 RMK A01 T00130003  RH  092%=      5-min Rain = 0
KTA1 221053Z 08006KT 01/00 A2985 RMK A01 T00140004  RH  093%=      5-min Rain = 0
KTA1 221054Z 08006KT 02/00 A2986 RMK A01 T00150004  RH  093%=      5-min Rain = 0
KTA1 221055Z 08007KT 02/01 A2986 RMK A01 T00150005  RH  093%=      5-min Rain = 0
KTA1 221056Z 08006KT 02/01 A2986 RMK A01 T00160005  RH  093%=      5-min Rain = 0
KTA1 221057Z 08007KT 02/01 A2986 RMK A01 T00170006  RH  093%=      5-min Rain = 0
KTA1 221058Z 08007KT 02/01 A2986 RMK A01 T00180007  RH  093%=      5-min Rain = 0
KTA1 221059Z 08007KT 02/01 A2986 RMK A01 T00190007  RH  092%=      5-min Rain = 0
KTA1 221100Z 08007KT 02/01 A2986 RMK A01 T00190008  RH  092%=      5-min Rain = 0
KTA1 221101Z 08006KT 02/01 A2986 RMK A01 T00200008  RH  092%=      5-min Rain = 0
KTA1 221102Z 08006KT 02/01 A2986 RMK A01 T00200008  RH  092%=      5-min Rain = 0
KTA1 221103Z 09006KT 02/01 A2986 RMK A01 T00210008  RH  092%=      5-min Rain = 0
KTA1 221104Z 09006KT 02/01 A2986 RMK A01 T00210009  RH  092%=      5-min Rain = 0
KTA1 221105Z 09006KT 02/01 A2986 RMK A01 T00220010  RH  092%=      5-min Rain = 0
KTA1 221106Z 09007KT 02/01 A2986 RMK A01 T00230011  RH  092%=      5-min Rain = 0
KTA1 221107Z 09006KT 02/01 A2986 RMK A01 T00230011  RH  092%=      5-min Rain = 0
KTA1 221108Z 09007KT 02/01 A2986 RMK A01 T00240011  RH  091%=      5-min Rain = 0
KTA1 221109Z 09007KT 03/01 A2986 RMK A01 T00250012  RH  091%=      5-min Rain = 0
KTA1 221110Z 09007KT 03/01 A2986 RMK A01 T00250012  RH  091%=      5-min Rain = 0
KTA1 221111Z 08006KT 03/01 A2986 RMK A01 T00260013  RH  091%=      5-min Rain = 0
KTA1 221112Z 08006KT 03/01 A2986 RMK A01 T00260013  RH  091%=      5-min Rain = 0
KTA1 221113Z 08006KT 03/01 A2986 RMK A01 T00260012  RH  091%=      5-min Rain = 0
KTA1 221114Z 08006KT 03/01 A2986 RMK A01 T00260012  RH  090%=      5-min Rain = 0
KTA1 221115Z 08006KT 03/01 A2986 RMK A01 T00270012  RH  090%=      5-min Rain = 0
KTA1 221116Z 07006KT 03/01 A2986 RMK A01 T00270012  RH  090%=      5-min Rain = 0
KTA1 221117Z 07006KT 03/01 A2986 RMK A01 T00270012  RH  090%=      5-min Rain = 0
KTA1 221118Z 06005KT 03/01 A2986 RMK A01 T00270012  RH  090%=      5-min Rain = 0
KTA1 221119Z 05006KT 03/01 A2986 RMK A01 T00270011  RH  090%=      5-min Rain = 0
KTA1 221120Z 05006KT 03/01 A2987 RMK A01 T00270012  RH  090%=      5-min Rain = 0
KTA1 221121Z 05006KT 03/01 A2987 RMK A01 T00270012  RH  090%=      5-min Rain = 0
KTA1 221122Z 05006KT 03/01 A2987 RMK A01 T00270012  RH  090%=      5-min Rain = 0
KTA1 221123Z 05006KT 03/01 A2987 RMK A01 T00280013  RH  090%=      5-min Rain = 0
KTA1 221124Z 04006KT 03/01 A2987 RMK A01 T00290013  RH  090%=      5-min Rain = 0
KTA1 221125Z 05006KT 03/01 A2987 RMK A01 T00290014  RH  090%=      5-min Rain = 0
KTA1 221126Z 04005KT 03/01 A2987 RMK A01 T00300014  RH  090%=      5-min Rain = 0
KTA1 221127Z 05005KT 03/01 A2987 RMK A01 T00300014  RH  090%=      5-min Rain = 0
KTA1 221128Z 05005KT 03/02 A2987 RMK A01 T00300015  RH  089%=      5-min Rain = 0
KTA1 221129Z 06005KT 03/02 A2987 RMK A01 T00310015  RH  089%=      5-min Rain = 0
KTA1 221130Z 06006KT 03/02 A2987 RMK A01 T00310015  RH  089%=      5-min Rain = 0
KTA1 221131Z 06006KT 03/02 A2987 RMK A01 T00310015  RH  089%=      5-min Rain = 0
KTA1 221132Z 06006KT 03/02 A2987 RMK A01 T00310015  RH  089%=      5-min Rain = 0
KTA1 221133Z 06006KT 03/02 A2987 RMK A01 T00310015  RH  089%=      5-min Rain = 0
KTA1 221134Z 05008KT 03/01 A2987 RMK A01 T00310014  RH  089%=      5-min Rain = 0
KTA1 221135Z 06007KT 03/01 A2987 RMK A01 T00310014  RH  089%=      5-min Rain = 0
KTA1 221136Z 06007KT 03/01 A2987 RMK A01 T00310014  RH  088%=      5-min Rain = 0
KTA1 221137Z 05007KT 03/01 A2987 RMK A01 T00310014  RH  089%=      5-min Rain = 0
KTA1 221138Z 05007KT 03/01 A2987 RMK A01 T00310014  RH  089%=      5-min Rain = 0
KTA1 221139Z 06007KT 03/01 A2987 RMK A01 T00310014  RH  089%=      5-min Rain = 0
KTA1 221140Z 05007KT 03/01 A2987 RMK A01 T00310014  RH  089%=      5-min Rain = 0
KTA1 221141Z 05008KT 03/01 A2987 RMK A01 T00310014  RH  089%=      5-min Rain = 0
KTA1 221142Z 06007KT 03/01 A2987 RMK A01 T00310014  RH  089%=      5-min Rain = 0
KTA1 221143Z 06008KT 03/01 A2987 RMK A01 T00300013  RH  089%=      5-min Rain = 0
KTA1 221144Z 06008KT 03/01 A2987 RMK A01 T00300014  RH  089%=      5-min Rain = 0
KTA1 221145Z 06007KT 03/01 A2987 RMK A01 T00300014  RH  089%=      5-min Rain = 0
KTA1 221146Z 06007KT 03/01 A2987 RMK A01 T00310014  RH  089%=      5-min Rain = 0
KTA1 221147Z 05007KT 03/01 A2988 RMK A01 T00300014  RH  089%=      5-min Rain = 0
KTA1 221148Z 05007KT 03/01 A2988 RMK A01 T00310014  RH  089%=      5-min Rain = 0
KTA1 221149Z 06006KT 03/01 A2988 RMK A01 T00310014  RH  089%=      5-min Rain = 0
KTA1 221150Z 06007KT 03/01 A2988 RMK A01 T00310014  RH  089%=      5-min Rain = 0
KTA1 221151Z 06007KT 03/01 A2988 RMK A01 T00310014  RH  089%=      5-min Rain = 0
KTA1 221152Z 06006KT 03/01 A2988 RMK A01 T00310014  RH  089%=      5-min Rain = 0
KTA1 221153Z 06007KT 03/02 A2988 RMK A01 T00310015  RH  089%=      5-min Rain = 0
KTA1 221154Z 06006KT 03/02 A2988 RMK A01 T00310015  RH  089%=      5-min Rain = 0
KTA1 221155Z 06006KT 03/02 A2988 RMK A01 T00310015  RH  089%=      5-min Rain = 0
KTA1 221156Z 06007KT 03/01 A2988 RMK A01 T00310014  RH  089%=      5-min Rain = 0
KTA1 221157Z 06007KT 03/01 A2988 RMK A01 T00310014  RH  089%=      5-min Rain = 0
KTA1 221158Z 06006KT 03/02 A2988 RMK A01 T00310015  RH  089%=      5-min Rain = 0
KTA1 221159Z 06006KT 03/01 A2988 RMK A01 T00310014  RH  089%=      5-min Rain = 0
KTA1 221200Z 07006KT 03/01 A2988 RMK A01 T00310014  RH  089%=      5-min Rain = 0
KTA1 221201Z 07006KT 03/01 A2988 RMK A01 T00300014  RH  089%=      5-min Rain = 0
KTA1 221202Z 07006KT 03/01 A2988 RMK A01 T00300014  RH  089%=      5-min Rain = 0
KTA1 221203Z 07006KT 03/01 A2988 RMK A01 T00300014  RH  089%=      5-min Rain = 0
KTA1 221204Z 06006KT 03/01 A2988 RMK A01 T00290014  RH  089%=      5-min Rain = 0
KTA1 221205Z 06005KT 03/01 A2988 RMK A01 T00290014  RH  089%=      5-min Rain = 0
KTA1 221206Z 06005KT 03/01 A2988 RMK A01 T00290013  RH  089%=      5-min Rain = 0
KTA1 221207Z 06006KT 03/01 A2988 RMK A01 T00290013  RH  089%=      5-min Rain = 0
KTA1 221208Z 06005KT 03/01 A2989 RMK A01 T00290013  RH  089%=      5-min Rain = 0
KTA1 221209Z 07005KT 03/01 A2989 RMK A01 T00290014  RH  090%=      5-min Rain = 0
KTA1 221210Z 08005KT 03/01 A2989 RMK A01 T00290014  RH  090%=      5-min Rain = 0
KTA1 221211Z 08005KT 03/01 A2989 RMK A01 T00290014  RH  090%=      5-min Rain = 0
KTA1 221212Z 08005KT 03/02 A2989 RMK A01 T00300015  RH  090%=      5-min Rain = 0
KTA1 221213Z 08005KT 03/02 A2989 RMK A01 T00300015  RH  090%=      5-min Rain = 0
KTA1 221214Z 08006KT 03/02 A2989 RMK A01 T00300016  RH  090%=      5-min Rain = 0
KTA1 221215Z 08005KT 03/02 A2989 RMK A01 T00310016  RH  090%=      5-min Rain = 0
KTA1 221216Z 07005KT 03/02 A2989 RMK A01 T00310016  RH  090%=      5-min Rain = 0
KTA1 221217Z 08006KT 03/02 A2989 RMK A01 T00320017  RH  090%=      5-min Rain = 0
KTA1 221218Z 08006KT 03/02 A2989 RMK A01 T00320018  RH  090%=      5-min Rain = 0
KTA1 221219Z 08006KT 03/02 A2989 RMK A01 T00320017  RH  090%=      5-min Rain = 0
KTA1 221220Z 08007KT 03/02 A2989 RMK A01 T00330018  RH  090%=      5-min Rain = 0
KTA1 221221Z 08006KT 03/02 A2989 RMK A01 T00330018  RH  090%=      5-min Rain = 0
KTA1 221222Z 08006KT 03/02 A2989 RMK A01 T00330018  RH  090%=      5-min Rain = 0
KTA1 221223Z 08006KT 03/02 A2989 RMK A01 T00340019  RH  090%=      5-min Rain = 0
KTA1 221224Z 08006KT 03/02 A2989 RMK A01 T00340019  RH  090%=      5-min Rain = 0
KTA1 221225Z 08006KT 04/02 A2989 RMK A01 T00350019  RH  090%=      5-min Rain = 0
KTA1 221226Z 08006KT 04/02 A2989 RMK A01 T00350019  RH  089%=      5-min Rain = 0
KTA1 221227Z 08005KT 04/02 A2989 RMK A01 T00350019  RH  089%=      5-min Rain = 0
KTA1 221228Z 08005KT 04/02 A2989 RMK A01 T00360020  RH  089%=      5-min Rain = 0
KTA1 221229Z 08005KT 04/02 A2989 RMK A01 T00360020  RH  089%=      5-min Rain = 0
KTA1 221230Z 08005KT 04/02 A2989 RMK A01 T00360021  RH  090%=      5-min Rain = 0
KTA1 221231Z 08006KT 04/02 A2989 RMK A01 T00370022  RH  090%=      5-min Rain = 0
KTA1 221232Z 07005KT 04/02 A2989 RMK A01 T00380023  RH  090%=      5-min Rain = 0
KTA1 221233Z 07005KT 04/02 A2989 RMK A01 T00380023  RH  090%=      5-min Rain = 0
KTA1 221234Z 07006KT 04/02 A2989 RMK A01 T00390023  RH  090%=      5-min Rain = 0
KTA1 221235Z 08006KT 04/02 A2989 RMK A01 T00390024  RH  090%=      5-min Rain = 0
KTA1 221236Z 08006KT 04/02 A2989 RMK A01 T00390024  RH  090%=      5-min Rain = 0
KTA1 221237Z 08006KT 04/03 A2989 RMK A01 T00400025  RH  090%=      5-min Rain = 0
KTA1 221238Z 08006KT 04/03 A2989 RMK A01 T00400025  RH  090%=      5-min Rain = 0
KTA1 221239Z 08006KT 04/03 A2989 RMK A01 T00410026  RH  090%=      5-min Rain = 0
KTA1 221240Z 08006KT 04/03 A2989 RMK A01 T00410026  RH  090%=      5-min Rain = 0
KTA1 221241Z 08005KT 04/03 A2989 RMK A01 T00410026  RH  090%=      5-min Rain = 0
KTA1 221242Z 09006KT 04/03 A2989 RMK A01 T00410026  RH  090%=      5-min Rain = 0
KTA1 221243Z 09006KT 04/03 A2989 RMK A01 T00410027  RH  090%=      5-min Rain = 0
KTA1 221244Z 09007KT 04/03 A2989 RMK A01 T00410027  RH  090%=      5-min Rain = 0
KTA1 221245Z 09007KT 04/03 A2989 RMK A01 T00420028  RH  091%=      5-min Rain = 0
KTA1 221246Z 09008KT 04/03 A2989 RMK A01 T00420029  RH  091%=      5-min Rain = 0
KTA1 221247Z 08007KT 04/03 A2989 RMK A01 T00430030  RH  092%=      5-min Rain = 0
KTA1 221248Z 08008KT 04/03 A2989 RMK A01 T00430030  RH  092%=      5-min Rain = 0
KTA1 221249Z 08007KT 04/03 A2989 RMK A01 T00430030  RH  092%=      5-min Rain = 0
KTA1 221250Z 09007KT 04/03 A2989 RMK A01 T00430030  RH  091%=      5-min Rain = 0
KTA1 221251Z 08007KT 04/03 A2989 RMK A01 T00430030  RH  091%=      5-min Rain = 0
KTA1 221252Z 08007KT 04/03 A2989 RMK A01 T00420029  RH  091%=      5-min Rain = 0
KTA1 221253Z 09008KT 04/03 A2989 RMK A01 T00420029  RH  091%=      5-min Rain = 0
KTA1 221254Z 08008KT 04/03 A2989 RMK A01 T00420028  RH  091%=      5-min Rain = 0
KTA1 221255Z 08008KT 04/03 A2989 RMK A01 T00420029  RH  091%=      5-min Rain = 0
KTA1 221256Z 09008KT 04/03 A2989 RMK A01 T00420029  RH  091%=      5-min Rain = 0
KTA1 221257Z 08008KT 04/03 A2989 RMK A01 T00420029  RH  092%=      5-min Rain = 0
KTA1 221258Z 08009KT 04/03 A2989 RMK A01 T00420030  RH  092%=      5-min Rain = 0
KTA1 221259Z 09009KT 04/03 A299 RMK A01 T00420030  RH  092%=      5-min Rain = 0
KTA1 221300Z 08008KT 04/03 A299 RMK A01 T00420030  RH  092%=      5-min Rain = 0
KTA1 221301Z 08007KT 04/03 A299 RMK A01 T00420031  RH  092%=      5-min Rain = 0
KTA1 221302Z 08007KT 04/03 A2989 RMK A01 T00420031  RH  092%=      5-min Rain = 0
KTA1 221303Z 08007KT 04/03 A2989 RMK A01 T00420030  RH  092%=      5-min Rain = 0
KTA1 221304Z 08009KT 04/03 A299 RMK A01 T00420030  RH  092%=      5-min Rain = 0
KTA1 221305Z 08008KT 04/03 A299 RMK A01 T00420031  RH  092%=      5-min Rain = 0
KTA1 221306Z 08007KT 04/03 A299 RMK A01 T00420031  RH  093%=      5-min Rain = 0
KTA1 221307Z 08007KT 04/03 A299 RMK A01 T00420031  RH  093%=      5-min Rain = 0
KTA1 221308Z 08008KT 04/03 A299 RMK A01 T00420031  RH  093%=      5-min Rain = 0
KTA1 221309Z 08008KT 04/03 A299 RMK A01 T00420032  RH  093%=      5-min Rain = 0
KTA1 221310Z 08007KT 04/03 A299 RMK A01 T00420032  RH  093%=      5-min Rain = 0
KTA1 221311Z 08007KT 04/03 A299 RMK A01 T00420032  RH  093%=      5-min Rain = 0
KTA1 221312Z 07007KT 04/03 A299 RMK A01 T00420032  RH  093%=      5-min Rain = 0
KTA1 221313Z 07008KT 04/03 A299 RMK A01 T00420032  RH  093%=      5-min Rain = 0
KTA1 221314Z 07008KT 04/03 A299 RMK A01 T00420032  RH  093%=      5-min Rain = 0
KTA1 221315Z 07008KT 04/03 A299 RMK A01 T00430033  RH  094%=      5-min Rain = 0
KTA1 221316Z 08009KT 04/03 A2991 RMK A01 T00430033  RH  094%=      5-min Rain = 0
KTA1 221317Z 08008KT 04/03 A2991 RMK A01 T00430034  RH  094%=      5-min Rain = 0
KTA1 221318Z 08007KT 04/03 A2991 RMK A01 T00430034  RH  094%=      5-min Rain = 0
KTA1 221319Z 08007KT 04/04 A2991 RMK A01 T00430035  RH  094%=      5-min Rain = 0
KTA1 221320Z 08008KT 04/04 A2991 RMK A01 T00430035  RH  094%=      5-min Rain = 0
KTA1 221321Z 08007KT 04/04 A2991 RMK A01 T00440035  RH  094%=      5-min Rain = 0
KTA1 221322Z 08007KT 04/04 A2991 RMK A01 T00430035  RH  094%=      5-min Rain = 0
KTA1 221323Z 08008KT 04/04 A2991 RMK A01 T00440036  RH  094%=      5-min Rain = 0
KTA1 221324Z 08008KT 04/04 A2991 RMK A01 T00440036  RH  095%=      5-min Rain = 0
KTA1 221325Z 08008KT 05/04 A2991 RMK A01 T00450037  RH  095%=      5-min Rain = 0
KTA1 221326Z 08009KT 04/04 A2991 RMK A01 T00440036  RH  095%=      5-min Rain = 0
KTA1 221327Z 08009KT 04/04 A2991 RMK A01 T00440037  RH  095%=      5-min Rain = 0
KTA1 221328Z 08009KT 05/04 A2991 RMK A01 T00450037  RH  095%=      5-min Rain = 0
KTA1 221329Z 08009KT 05/04 A2991 RMK A01 T00450037  RH  095%=      5-min Rain = 0
KTA1 221330Z 08009KT 04/04 A2991 RMK A01 T00440037  RH  095%=      5-min Rain = 0
KTA1 221331Z 08010KT 05/04 A2991 RMK A01 T00450038  RH  095%=      5-min Rain = 0
KTA1 221332Z 08008KT 05/04 A2991 RMK A01 T00450038  RH  095%=      5-min Rain = 0
KTA1 221333Z 08010KT 05/04 A2991 RMK A01 T00450038  RH  095%=      5-min Rain = 0
KTA1 221334Z 08010KT 05/04 A2991 RMK A01 T00450038  RH  095%=      5-min Rain = 0
KTA1 221335Z 08009KT 05/04 A2991 RMK A01 T00450038  RH  095%=      5-min Rain = 0
KTA1 221336Z 08009KT 05/04 A2991 RMK A01 T00450039  RH  096%=      5-min Rain = 0
KTA1 221337Z 08009KT 05/04 A2991 RMK A01 T00450039  RH  096%=      5-min Rain = 0
KTA1 221338Z 08009KT 05/04 A2991 RMK A01 T00460039  RH  096%=      5-min Rain = 0
KTA1 221339Z 08009KT 05/04 A2991 RMK A01 T00460039  RH  096%=      5-min Rain = 0
KTA1 221340Z 08009KT 05/04 A2991 RMK A01 T00460040  RH  096%=      5-min Rain = 0
KTA1 221341Z 08009KT 05/04 A2991 RMK A01 T00460040  RH  096%=      5-min Rain = 0
KTA1 221342Z 08009KT 05/04 A2991 RMK A01 T00460040  RH  096%=      5-min Rain = 0
KTA1 221343Z 08009KT 05/04 A2991 RMK A01 T00460041  RH  096%=      5-min Rain = 0
KTA1 221344Z 08008KT 05/04 A2991 RMK A01 T00470041  RH  096%=      5-min Rain = 0
KTA1 221345Z 08008KT 05/04 A2991 RMK A01 T00470041  RH  096%=      5-min Rain = 0
KTA1 221346Z 08008KT 05/04 A2991 RMK A01 T00470041  RH  096%=      5-min Rain = 0
KTA1 221347Z 08009KT 05/04 A2991 RMK A01 T00470042  RH  096%=      5-min Rain = 0
KTA1 221348Z 08008KT 05/04 A2991 RMK A01 T00480042  RH  096%=      5-min Rain = 0
KTA1 221349Z 08008KT 05/04 A2991 RMK A01 T00480042  RH  096%=      5-min Rain = 0
KTA1 221350Z 08008KT 05/04 A2991 RMK A01 T00480042  RH  096%=      5-min Rain = 0
KTA1 221351Z 08009KT 05/04 A2991 RMK A01 T00480042  RH  096%=      5-min Rain = 0
KTA1 221352Z 08008KT 05/04 A2991 RMK A01 T00480043  RH  096%=      5-min Rain = 0
KTA1 221353Z 08008KT 05/04 A2991 RMK A01 T00480043  RH  096%=      5-min Rain = 0
KTA1 221354Z 08008KT 05/04 A2991 RMK A01 T00480043  RH  096%=      5-min Rain = 0
KTA1 221355Z 08008KT 05/04 A2991 RMK A01 T00490043  RH  096%=      5-min Rain = 0
KTA1 221356Z 08007KT 05/04 A2991 RMK A01 T00490044  RH  096%=      5-min Rain = 0
KTA1 221357Z 08008KT 05/04 A2992 RMK A01 T00490044  RH  096%=      5-min Rain = 0
KTA1 221358Z 08007KT 05/04 A2992 RMK A01 T00490044  RH  096%=      5-min Rain = 0
KTA1 221359Z 07007KT 05/04 A2992 RMK A01 T00500044  RH  096%=      5-min Rain = 0
KTA1 221400Z 07008KT 05/04 A2992 RMK A01 T00500044  RH  096%=      5-min Rain = 0
KTA1 221401Z 07008KT 05/04 A2992 RMK A01 T00500044  RH  096%=      5-min Rain = 0
KTA1 221402Z 07007KT 05/04 A2992 RMK A01 T00500044  RH  096%=      5-min Rain = 0
KTA1 221403Z 07007KT 05/05 A2992 RMK A01 T00510045  RH  096%=      5-min Rain = 0
KTA1 221404Z 07008KT 05/05 A2992 RMK A01 T00510046  RH  096%=      5-min Rain = 0
KTA1 221405Z 08007KT 05/05 A2992 RMK A01 T00510046  RH  096%=      5-min Rain = 0
KTA1 221406Z 08007KT 05/05 A2992 RMK A01 T00510046  RH  096%=      5-min Rain = 0
KTA1 221407Z 08008KT 05/05 A2992 RMK A01 T00520046  RH  096%=      5-min Rain = 0
KTA1 221408Z 08008KT 05/05 A2992 RMK A01 T00520046  RH  096%=      5-min Rain = 0
KTA1 221409Z 08008KT 05/05 A2992 RMK A01 T00520046  RH  096%=      5-min Rain = 0
KTA1 221410Z 08007KT 05/05 A2992 RMK A01 T00520047  RH  096%=      5-min Rain = 0
KTA1 221411Z 08008KT 05/05 A2992 RMK A01 T00520047  RH  096%=      5-min Rain = 0
KTA1 221412Z 08008KT 05/05 A2992 RMK A01 T00530047  RH  096%=      5-min Rain = 0
KTA1 221413Z 08007KT 05/05 A2992 RMK A01 T00530048  RH  096%=      5-min Rain = 0
KTA1 221414Z 08007KT 05/05 A2992 RMK A01 T00530048  RH  096%=      5-min Rain = 0
KTA1 221415Z 08008KT 05/05 A2992 RMK A01 T00540048  RH  096%=      5-min Rain = 0
KTA1 221416Z 08008KT 05/05 A2992 RMK A01 T00540049  RH  096%=      5-min Rain = 0
KTA1 221417Z 08008KT 06/05 A2992 RMK A01 T00550049  RH  096%=      5-min Rain = 0
KTA1 221418Z 08008KT 06/05 A2993 RMK A01 T00550050  RH  097%=      5-min Rain = 0
KTA1 221419Z 08007KT 06/05 A2993 RMK A01 T00550050  RH  096%=      5-min Rain = 0
KTA1 221420Z 08007KT 06/05 A2993 RMK A01 T00550050  RH  096%=      5-min Rain = 0
KTA1 221421Z 08008KT 06/05 A2993 RMK A01 T00560051  RH  096%=      5-min Rain = 0
KTA1 221422Z 08008KT 06/05 A2993 RMK A01 T00570051  RH  096%=      5-min Rain = 0
KTA1 221423Z 08007KT 06/05 A2993 RMK A01 T00570051  RH  096%=      5-min Rain = 0
KTA1 221424Z 08008KT 06/05 A2993 RMK A01 T00570052  RH  096%=      5-min Rain = 0
KTA1 221425Z 08006KT 06/05 A2993 RMK A01 T00580052  RH  096%=      5-min Rain = 0
KTA1 221426Z 09008KT 06/05 A2993 RMK A01 T00580053  RH  096%=      5-min Rain = 0
KTA1 221427Z 08008KT 06/05 A2993 RMK A01 T00580053  RH  096%=      5-min Rain = 0
KTA1 221428Z 08009KT 06/05 A2993 RMK A01 T00580053  RH  096%=      5-min Rain = 0
KTA1 221429Z 09008KT 06/05 A2993 RMK A01 T00590053  RH  096%=      5-min Rain = 0
KTA1 221430Z 08007KT 06/05 A2993 RMK A01 T00590054  RH  096%=      5-min Rain = 0
KTA1 221431Z 08008KT 06/05 A2993 RMK A01 T00600054  RH  096%=      5-min Rain = 0
KTA1 221432Z 09006KT 06/05 A2993 RMK A01 T00600054  RH  096%=      5-min Rain = 0
KTA1 221433Z 08006KT 06/06 A2993 RMK A01 T00600055  RH  096%=      5-min Rain = 0
KTA1 221434Z 09007KT 06/06 A2993 RMK A01 T00610055  RH  096%=      5-min Rain = 0
KTA1 221435Z 08007KT 06/06 A2993 RMK A01 T00610055  RH  096%=      5-min Rain = 0
KTA1 221436Z 08007KT 06/06 A2993 RMK A01 T00620055  RH  096%=      5-min Rain = 0
KTA1 221437Z 08007KT 06/06 A2993 RMK A01 T00620056  RH  096%=      5-min Rain = 0
KTA1 221438Z 08007KT 06/06 A2993 RMK A01 T00620056  RH  096%=      5-min Rain = 0
KTA1 221439Z 08008KT 06/06 A2994 RMK A01 T00630056  RH  095%=      5-min Rain = 0
KTA1 221440Z 08007KT 06/06 A2994 RMK A01 T00630056  RH  095%=      5-min Rain = 0
KTA1 221441Z 08007KT 06/06 A2994 RMK A01 T00630056  RH  095%=      5-min Rain = 0
KTA1 221442Z 08007KT 06/06 A2994 RMK A01 T00630056  RH  095%=      5-min Rain = 0
KTA1 221443Z 08007KT 06/06 A2994 RMK A01 T00630056  RH  095%=      5-min Rain = 0
KTA1 221444Z 08008KT 06/06 A2994 RMK A01 T00640056  RH  095%=      5-min Rain = 0
KTA1 221445Z 08006KT 06/06 A2994 RMK A01 T00640057  RH  095%=      5-min Rain = 0
KTA1 221446Z 08007KT 07/06 A2994 RMK A01 T00650058  RH  095%=      5-min Rain = 0
KTA1 221447Z 09007KT 07/06 A2994 RMK A01 T00650058  RH  095%=      5-min Rain = 0
KTA1 221448Z 09007KT 07/06 A2994 RMK A01 T00660058  RH  095%=      5-min Rain = 0
KTA1 221449Z 08006KT 07/06 A2994 RMK A01 T00660058  RH  095%=      5-min Rain = 0
KTA1 221450Z 08006KT 07/06 A2994 RMK A01 T00660058  RH  095%=      5-min Rain = 0
KTA1 221451Z 08007KT 07/06 A2994 RMK A01 T00660058  RH  095%=      5-min Rain = 0
KTA1 221452Z 08008KT 07/06 A2994 RMK A01 T00660058  RH  095%=      5-min Rain = 0
KTA1 221453Z 08008KT 07/06 A2994 RMK A01 T00660058  RH  094%=      5-min Rain = 0
KTA1 221454Z 08008KT 07/06 A2994 RMK A01 T00660058  RH  094%=      5-min Rain = 0
KTA1 221455Z 08008KT 07/06 A2994 RMK A01 T00660058  RH  095%=      5-min Rain = 0
KTA1 221456Z 08008KT 07/06 A2994 RMK A01 T00670059  RH  095%=      5-min Rain = 0
KTA1 221457Z 08007KT 07/06 A2994 RMK A01 T00670059  RH  095%=      5-min Rain = 0
KTA1 221458Z 08008KT 07/06 A2994 RMK A01 T00680059  RH  094%=      5-min Rain = 0
KTA1 221459Z 08008KT 07/06 A2994 RMK A01 T00680060  RH  094%=      5-min Rain = 0
KTA1 221500Z 08007KT 07/06 A2994 RMK A01 T00680059  RH  094%=      5-min Rain = 0
KTA1 221501Z 08007KT 07/06 A2994 RMK A01 T00680059  RH  094%=      5-min Rain = 0
KTA1 221502Z 08008KT 07/06 A2994 RMK A01 T00690060  RH  094%=      5-min Rain = 0
KTA1 221503Z 08007KT 07/06 A2994 RMK A01 T00690060  RH  094%=      5-min Rain = 0
KTA1 221504Z 08008KT 07/06 A2994 RMK A01 T00700060  RH  094%=      5-min Rain = 0
KTA1 221505Z 09007KT 07/06 A2994 RMK A01 T00710061  RH  094%=      5-min Rain = 0
KTA1 221506Z 09008KT 07/06 A2994 RMK A01 T00720062  RH  094%=      5-min Rain = 0
KTA1 221507Z 09007KT 07/06 A2994 RMK A01 T00720062  RH  093%=      5-min Rain = 0
KTA1 221508Z 09008KT 07/06 A2994 RMK A01 T00730062  RH  093%=      5-min Rain = 0
KTA1 221509Z 09007KT 07/06 A2994 RMK A01 T00730062  RH  092%=      5-min Rain = 0
KTA1 221510Z 09006KT 07/06 A2994 RMK A01 T00730062  RH  092%=      5-min Rain = 0
KTA1 221511Z 09007KT 08/06 A2994 RMK A01 T00750063  RH  092%=      5-min Rain = 0
KTA1 221512Z 09007KT 08/06 A2994 RMK A01 T00750062  RH  092%=      5-min Rain = 0
KTA1 221513Z 09007KT 08/06 A2994 RMK A01 T00750062  RH  092%=      5-min Rain = 0
KTA1 221514Z 09007KT 08/06 A2994 RMK A01 T00750062  RH  092%=      5-min Rain = 0
KTA1 221515Z 09008KT 08/06 A2994 RMK A01 T00750062  RH  092%=      5-min Rain = 0
KTA1 221516Z 09007KT 08/06 A2994 RMK A01 T00750062  RH  091%=      5-min Rain = 0
KTA1 221517Z 09008KT 08/06 A2994 RMK A01 T00750063  RH  092%=      5-min Rain = 0
KTA1 221518Z 09008KT 08/06 A2994 RMK A01 T00760063  RH  091%=      5-min Rain = 0
KTA1 221519Z 09009KT 08/06 A2994 RMK A01 T00760063  RH  091%=      5-min Rain = 0
KTA1 221520Z 09009KT 08/06 A2994 RMK A01 T00770063  RH  091%=      5-min Rain = 0
KTA1 221521Z 09009KT 08/06 A2994 RMK A01 T00770063  RH  091%=      5-min Rain = 0
KTA1 221522Z 09009KT 08/06 A2994 RMK A01 T00770063  RH  091%=      5-min Rain = 0
KTA1 221523Z 09008KT 08/06 A2994 RMK A01 T00780064  RH  091%=      5-min Rain = 0
KTA1 221524Z 09009KT 08/07 A2994 RMK A01 T00790065  RH  091%=      5-min Rain = 0
KTA1 221525Z 09008KT 08/07 A2994 RMK A01 T00800065  RH  090%=      5-min Rain = 0
KTA1 221526Z 09009KT 08/07 A2994 RMK A01 T00810065  RH  090%=      5-min Rain = 0
KTA1 221527Z 09009KT 08/07 A2994 RMK A01 T00810065  RH  089%=      5-min Rain = 0
KTA1 221528Z 08008KT 08/07 A2994 RMK A01 T00810065  RH  089%=      5-min Rain = 0
KTA1 221529Z 08008KT 08/07 A2994 RMK A01 T00810065  RH  089%=      5-min Rain = 0
KTA1 221530Z 08008KT 08/07 A2994 RMK A01 T00820065  RH  089%=      5-min Rain = 0
KTA1 221531Z 09008KT 08/07 A2994 RMK A01 T00820065  RH  089%=      5-min Rain = 0
KTA1 221532Z 09008KT 08/07 A2994 RMK A01 T00830065  RH  089%=      5-min Rain = 0
KTA1 221533Z 08008KT 08/06 A2994 RMK A01 T00830064  RH  088%=      5-min Rain = 0
KTA1 221534Z 08009KT 08/06 A2994 RMK A01 T00830064  RH  088%=      5-min Rain = 0
KTA1 221535Z 09008KT 08/06 A2994 RMK A01 T00830064  RH  088%=      5-min Rain = 0
KTA1 221536Z 09008KT 08/07 A2994 RMK A01 T00830065  RH  088%=      5-min Rain = 0
KTA1 221537Z 09008KT 08/07 A2994 RMK A01 T00840065  RH  088%=      5-min Rain = 0
KTA1 221538Z 09007KT 08/06 A2994 RMK A01 T00830064  RH  088%=      5-min Rain = 0
KTA1 221539Z 08007KT 08/07 A2994 RMK A01 T00840065  RH  088%=      5-min Rain = 0
KTA1 221540Z 09007KT 09/07 A2994 RMK A01 T00850065  RH  088%=      5-min Rain = 0
KTA1 221541Z 09008KT 09/07 A2994 RMK A01 T00860066  RH  087%=      5-min Rain = 0
KTA1 221542Z 09007KT 09/07 A2994 RMK A01 T00860065  RH  087%=      5-min Rain = 0
KTA1 221543Z 09008KT 09/07 A2994 RMK A01 T00860065  RH  087%=      5-min Rain = 0
KTA1 221544Z 08007KT 09/07 A2994 RMK A01 T00870066  RH  087%=      5-min Rain = 0
KTA1 221545Z 09007KT 09/07 A2994 RMK A01 T00870066  RH  087%=      5-min Rain = 0
KTA1 221546Z 09006KT 09/07 A2995 RMK A01 T00870066  RH  086%=      5-min Rain = 0
KTA1 221547Z 08008KT 09/07 A2995 RMK A01 T00870066  RH  087%=      5-min Rain = 0
KTA1 221548Z 09006KT 09/07 A2995 RMK A01 T00870066  RH  087%=      5-min Rain = 0
KTA1 221549Z 09007KT 09/07 A2995 RMK A01 T00880066  RH  086%=      5-min Rain = 0
KTA1 221550Z 09006KT 09/07 A2995 RMK A01 T00880066  RH  086%=      5-min Rain = 0
KTA1 221551Z 09006KT 09/07 A2995 RMK A01 T00880066  RH  086%=      5-min Rain = 0
KTA1 221552Z 09006KT 09/07 A2995 RMK A01 T00880066  RH  086%=      5-min Rain = 0
KTA1 221553Z 09006KT 09/07 A2995 RMK A01 T00890067  RH  086%=      5-min Rain = 0
KTA1 221554Z 09006KT 09/07 A2995 RMK A01 T00880066  RH  086%=      5-min Rain = 0
KTA1 221555Z 08006KT 09/07 A2995 RMK A01 T00890067  RH  086%=      5-min Rain = 0
KTA1 221556Z 10006KT 09/07 A2995 RMK A01 T00890066  RH  086%=      5-min Rain = 0
KTA1 221557Z 10005KT 09/07 A2995 RMK A01 T00890067  RH  086%=      5-min Rain = 0
KTA1 221558Z 11006KT 09/07 A2995 RMK A01 T00890067  RH  086%=      5-min Rain = 0
KTA1 221559Z 12006KT 09/07 A2995 RMK A01 T00900067  RH  085%=      5-min Rain = 0
KTA1 221600Z 12005KT 09/07 A2994 RMK A01 T00900067  RH  085%=      5-min Rain = 0
KTA1 221601Z 11006KT 09/07 A2994 RMK A01 T00910068  RH  085%=      5-min Rain = 0
KTA1 221602Z 12007KT 09/07 A2994 RMK A01 T00920067  RH  085%=      5-min Rain = 0
KTA1 221603Z 11007KT 09/07 A2994 RMK A01 T00920067  RH  084%=      5-min Rain = 0
KTA1 221604Z 12006KT 09/07 A2994 RMK A01 T00930068  RH  084%=      5-min Rain = 0
KTA1 221605Z 09007KT 09/07 A2994 RMK A01 T00930067  RH  084%=      5-min Rain = 0
KTA1 221606Z 09007KT 09/07 A2994 RMK A01 T00940067  RH  084%=      5-min Rain = 0
KTA1 221607Z 11008KT 09/07 A2994 RMK A01 T00930068  RH  084%=      5-min Rain = 0
KTA1 221608Z 11006KT 09/07 A2994 RMK A01 T00940068  RH  084%=      5-min Rain = 0
KTA1 221609Z 11006KT 10/07 A2994 RMK A01 T00950068  RH  084%=      5-min Rain = 0
KTA1 221610Z 10007KT 10/07 A2994 RMK A01 T00950068  RH  083%=      5-min Rain = 0
KTA1 221611Z 10006KT 10/07 A2994 RMK A01 T00950068  RH  083%=      5-min Rain = 0
KTA1 221612Z 10006KT 09/07 A2994 RMK A01 T00940068  RH  084%=      5-min Rain = 0
KTA1 221613Z 11006KT 09/07 A2994 RMK A01 T00930066  RH  083%=      5-min Rain = 0
KTA1 221614Z 11006KT 09/07 A2994 RMK A01 T00930067  RH  084%=      5-min Rain = 0
KTA1 221615Z 12007KT 09/07 A2994 RMK A01 T00940068  RH  084%=      5-min Rain = 0
KTA1 221616Z 12008KT 10/07 A2994 RMK A01 T00960068  RH  083%=      5-min Rain = 0
KTA1 221617Z 13008KT 10/07 A2994 RMK A01 T00970068  RH  082%=      5-min Rain = 0
KTA1 221618Z 13007KT 10/07 A2994 RMK A01 T00970068  RH  082%=      5-min Rain = 0
KTA1 221619Z 13007KT 10/07 A2994 RMK A01 T00980068  RH  082%=      5-min Rain = 0
KTA1 221620Z 13006KT 10/07 A2994 RMK A01 T00980068  RH  081%=      5-min Rain = 0
KTA1 221621Z 12007KT 10/07 A2994 RMK A01 T00980068  RH  082%=      5-min Rain = 0
KTA1 221622Z 12007KT 10/07 A2994 RMK A01 T00990067  RH  081%=      5-min Rain = 0
KTA1 221623Z 14008KT 10/07 A2994 RMK A01 T00990068  RH  081%=      5-min Rain = 0
KTA1 221624Z 13007KT 10/07 A2994 RMK A01 T01000068  RH  080%=      5-min Rain = 0
KTA1 221625Z 15005KT 10/07 A2994 RMK A01 T01010069  RH  081%=      5-min Rain = 0
KTA1 221626Z 16003KT 10/07 A2994 RMK A01 T01010069  RH  081%=      5-min Rain = 0
KTA1 221627Z 15003KT 10/07 A2994 RMK A01 T01020069  RH  080%=      5-min Rain = 0
KTA1 221628Z 14007KT 10/07 A2993 RMK A01 T01030070  RH  080%=      5-min Rain = 0
KTA1 221629Z 17007KT 11/07 A2993 RMK A01 T01050070  RH  079%=      5-min Rain = 0
KTA1 221630Z 16006KT 11/07 A2993 RMK A01 T01050069  RH  079%=      5-min Rain = 0
KTA1 221631Z 15006KT 11/07 A2993 RMK A01 T01060070  RH  078%=      5-min Rain = 0
KTA1 221632Z 14010KT 11/07 A2993 RMK A01 T01070070  RH  078%=      5-min Rain = 0
KTA1 221633Z 14008KT 11/07 A2993 RMK A01 T01080069  RH  077%=      5-min Rain = 0
KTA1 221634Z 15008KT 11/07 A2993 RMK A01 T01080069  RH  077%=      5-min Rain = 0
KTA1 221635Z 15008KT 11/07 A2993 RMK A01 T01110071  RH  077%=      5-min Rain = 0
KTA1 221636Z 14008KT 11/07 A2993 RMK A01 T01130070  RH  075%=      5-min Rain = 0
KTA1 221637Z 14008KT 11/07 A2993 RMK A01 T01130069  RH  074%=      5-min Rain = 0
KTA1 221638Z 14008KT 12/07 A2993 RMK A01 T01150070  RH  074%=      5-min Rain = 0
KTA1 221639Z 14009KT 11/07 A2993 RMK A01 T01140068  RH  074%=      5-min Rain = 0
KTA1 221640Z 14008KT 11/07 A2993 RMK A01 T01120068  RH  074%=      5-min Rain = 0
KTA1 221641Z 15008KT 11/07 A2993 RMK A01 T01120067  RH  074%=      5-min Rain = 0
KTA1 221642Z 15008KT 11/07 A2993 RMK A01 T01120068  RH  074%=      5-min Rain = 0
KTA1 221643Z 15009KT 11/07 A2993 RMK A01 T01120068  RH  074%=      5-min Rain = 0
KTA1 221644Z 13007KT 11/07 A2993 RMK A01 T01110065  RH  073%=      5-min Rain = 0
KTA1 221645Z 15006KT 11/07 A2993 RMK A01 T01110067  RH  074%=      5-min Rain = 0
KTA1 221646Z 17005KT 11/07 A2993 RMK A01 T01120069  RH  075%=      5-min Rain = 0
KTA1 221647Z 15005KT 11/07 A2993 RMK A01 T01140068  RH  074%=      5-min Rain = 0
KTA1 221648Z 15006KT 11/07 A2993 RMK A01 T01140069  RH  074%=      5-min Rain = 0
KTA1 221649Z 16008KT 11/07 A2993 RMK A01 T01140068  RH  073%=      5-min Rain = 0
KTA1 221650Z 13007KT 12/07 A2993 RMK A01 T01150068  RH  073%=      5-min Rain = 0
KTA1 221651Z 13007KT 12/07 A2992 RMK A01 T01170069  RH  073%=      5-min Rain = 0
KTA1 221652Z 13008KT 12/07 A2992 RMK A01 T01180069  RH  072%=      5-min Rain = 0
KTA1 221653Z 15006KT 12/07 A2992 RMK A01 T01190069  RH  071%=      5-min Rain = 0
KTA1 221654Z 17007KT 12/07 A2992 RMK A01 T01230070  RH  070%=      5-min Rain = 0
KTA1 221655Z 17006KT 12/07 A2992 RMK A01 T01220068  RH  069%=      5-min Rain = 0
KTA1 221656Z 16005KT 12/07 A2993 RMK A01 T01200068  RH  071%=      5-min Rain = 0
KTA1 221657Z 13006KT 12/07 A2993 RMK A01 T01210070  RH  071%=      5-min Rain = 0
KTA1 221658Z 13010KT 12/07 A2993 RMK A01 T01240071  RH  070%=      5-min Rain = 0
KTA1 221659Z 13007KT 13/07 A2993 RMK A01 T01260070  RH  069%=      5-min Rain = 0
KTA1 221700Z 15006KT 13/07 A2993 RMK A01 T01250071  RH  069%=      5-min Rain = 0
KTA1 221701Z 14005KT 12/07 A2993 RMK A01 T01240069  RH  069%=      5-min Rain = 0
KTA1 221702Z 11003KT 12/07 A2993 RMK A01 T01220069  RH  070%=      5-min Rain = 0
KTA1 221703Z 13003KT 12/07 A2993 RMK A01 T01210071  RH  071%=      5-min Rain = 0
KTA1 221704Z 14005KT 12/07 A2993 RMK A01 T01210071  RH  071%=      5-min Rain = 0
KTA1 221705Z 12006KT 12/07 A2993 RMK A01 T01220070  RH  071%=      5-min Rain = 0
KTA1 221706Z 11005KT 12/07 A2993 RMK A01 T01210069  RH  071%=      5-min Rain = 0
KTA1 221707Z 12006KT 12/07 A2993 RMK A01 T01190069  RH  071%=      5-min Rain = 0
KTA1 221708Z 13005KT 12/07 A2993 RMK A01 T01190070  RH  072%=      5-min Rain = 0
KTA1 221709Z 13004KT 12/07 A2993 RMK A01 T01220071  RH  071%=      5-min Rain = 0
KTA1 221710Z 14004KT 12/07 A2993 RMK A01 T01230071  RH  070%=      5-min Rain = 0
KTA1 221711Z 14005KT 13/07 A2993 RMK A01 T01250070  RH  069%=      5-min Rain = 0
KTA1 221712Z 17007KT 13/07 A2992 RMK A01 T01260069  RH  068%=      5-min Rain = 0
KTA1 221713Z 15007KT 13/07 A2992 RMK A01 T01270070  RH  069%=      5-min Rain = 0
KTA1 221714Z 14006KT 13/07 A2992 RMK A01 T01290070  RH  067%=      5-min Rain = 0
KTA1 221715Z 14005KT 13/07 A2992 RMK A01 T01290069  RH  067%=      5-min Rain = 0
KTA1 221716Z 14005KT 13/07 A2992 RMK A01 T01290070  RH  067%=      5-min Rain = 0
KTA1 221717Z 15006KT 13/07 A2992 RMK A01 T01290070  RH  067%=      5-min Rain = 0
KTA1 221718Z 15005KT 13/07 A2992 RMK A01 T01300069  RH  067%=      5-min Rain = 0
KTA1 221719Z 17008KT 13/07 A2992 RMK A01 T01300070  RH  067%=      5-min Rain = 0
KTA1 221720Z 17008KT 13/07 A2992 RMK A01 T01300069  RH  066%=      5-min Rain = 0
KTA1 221721Z 17005KT 13/07 A2992 RMK A01 T01300070  RH  067%=      5-min Rain = 0
KTA1 221722Z 17005KT 13/07 A2992 RMK A01 T01310069  RH  066%=      5-min Rain = 0
KTA1 221723Z 13005KT 13/07 A2992 RMK A01 T01310070  RH  067%=      5-min Rain = 0
KTA1 221724Z 12005KT 13/07 A2992 RMK A01 T01310070  RH  066%=      5-min Rain = 0
KTA1 221725Z 14008KT 13/07 A2991 RMK A01 T01320070  RH  066%=      5-min Rain = 0
KTA1 221726Z 13008KT 14/07 A2991 RMK A01 T01350071  RH  065%=      5-min Rain = 0
KTA1 221727Z 17005KT 14/07 A2991 RMK A01 T01380071  RH  064%=      5-min Rain = 0
KTA1 221728Z 15006KT 14/07 A2992 RMK A01 T01410071  RH  063%=      5-min Rain = 0
KTA1 221729Z 14007KT 14/07 A2992 RMK A01 T01390069  RH  063%=      5-min Rain = 0
KTA1 221730Z 17008KT 14/07 A2991 RMK A01 T01370070  RH  064%=      5-min Rain = 0
KTA1 221731Z 16005KT 14/07 A2991 RMK A01 T01350071  RH  065%=      5-min Rain = 0
KTA1 221732Z 17004KT 13/07 A2991 RMK A01 T01340071  RH  066%=      5-min Rain = 0
KTA1 221733Z 15007KT 14/07 A2991 RMK A01 T01360073  RH  065%=      5-min Rain = 0
KTA1 221734Z 14006KT 14/07 A2991 RMK A01 T01390073  RH  064%=      5-min Rain = 0
KTA1 221735Z 13006KT 14/07 A2991 RMK A01 T01400071  RH  063%=      5-min Rain = 0
KTA1 221736Z 11008KT 14/07 A2991 RMK A01 T01400072  RH  064%=      5-min Rain = 0
KTA1 221737Z 11007KT 14/07 A2991 RMK A01 T01380071  RH  064%=      5-min Rain = 0
KTA1 221738Z 14006KT 14/07 A2991 RMK A01 T01360072  RH  065%=      5-min Rain = 0
KTA1 221739Z 14004KT 14/07 A2991 RMK A01 T01360071  RH  065%=      5-min Rain = 0
KTA1 221740Z 13005KT 14/07 A2991 RMK A01 T01360071  RH  065%=      5-min Rain = 0
KTA1 221741Z 14004KT 14/07 A2991 RMK A01 T01370071  RH  064%=      5-min Rain = 0
KTA1 221742Z 13004KT 14/07 A2991 RMK A01 T01380070  RH  063%=      5-min Rain = 0
KTA1 221743Z 15006KT 14/07 A299 RMK A01 T01400070  RH  063%=      5-min Rain = 0
KTA1 221744Z 14007KT 14/07 A299 RMK A01 T01420069  RH  061%=      5-min Rain = 0
KTA1 221745Z 15005KT 14/07 A299 RMK A01 T01420068  RH  061%=      5-min Rain = 0
KTA1 221746Z 12006KT 14/07 A299 RMK A01 T01420069  RH  061%=      5-min Rain = 0
KTA1 221747Z 10005KT 14/07 A299 RMK A01 T01410068  RH  061%=      5-min Rain = 0
KTA1 221748Z 12003KT 14/07 A299 RMK A01 T01390069  RH  062%=      5-min Rain = 0
KTA1 221749Z 15003KT 14/07 A299 RMK A01 T01380070  RH  063%=      5-min Rain = 0
KTA1 221750Z 15007KT 14/07 A299 RMK A01 T01390070  RH  063%=      5-min Rain = 0
KTA1 221751Z 14005KT 14/07 A299 RMK A01 T01410070  RH  062%=      5-min Rain = 0
KTA1 221752Z 15006KT 14/07 A299 RMK A01 T01430069  RH  061%=      5-min Rain = 0
KTA1 221753Z 13006KT 14/07 A299 RMK A01 T01430068  RH  060%=      5-min Rain = 0
KTA1 221754Z 13006KT 14/07 A299 RMK A01 T01440068  RH  061%=      5-min Rain = 0
KTA1 221755Z 11004KT 14/07 A299 RMK A01 T01430068  RH  060%=      5-min Rain = 0
KTA1 221756Z 14005KT 14/07 A299 RMK A01 T01430069  RH  061%=      5-min Rain = 0
KTA1 221757Z 17007KT 15/07 A299 RMK A01 T01450069  RH  060%=      5-min Rain = 0
KTA1 221758Z 16006KT 15/07 A2989 RMK A01 T01470069  RH  059%=      5-min Rain = 0
KTA1 221759Z 16005KT 15/07 A2989 RMK A01 T01490068  RH  058%=      5-min Rain = 0
KTA1 221800Z 16004KT 15/07 A2989 RMK A01 T01490066  RH  058%=      5-min Rain = 0
KTA1 221801Z 16005KT 15/07 A2989 RMK A01 T01480068  RH  059%=      5-min Rain = 0
KTA1 221802Z 15004KT 15/07 A2989 RMK A01 T01500068  RH  058%=      5-min Rain = 0
KTA1 221803Z 16006KT 15/07 A2989 RMK A01 T01510068  RH  057%=      5-min Rain = 0
KTA1 221804Z 17006KT 15/07 A2989 RMK A01 T01540070  RH  058%=      5-min Rain = 0
KTA1 221805Z 14005KT 16/07 A2989 RMK A01 T01550069  RH  057%=      5-min Rain = 0
KTA1 221806Z 12007KT 15/07 A2989 RMK A01 T01540069  RH  057%=      5-min Rain = 0
KTA1 221807Z 11006KT 15/07 A2989 RMK A01 T01520069  RH  057%=      5-min Rain = 0
KTA1 221808Z 14005KT 15/07 A2989 RMK A01 T01490068  RH  058%=      5-min Rain = 0
KTA1 221809Z 12005KT 15/07 A2989 RMK A01 T01480069  RH  059%=      5-min Rain = 0
KTA1 221810Z 12010KT 15/07 A2989 RMK A01 T01510072  RH  059%=      5-min Rain = 0
KTA1 221811Z 13007KT 15/07 A2989 RMK A01 T01530070  RH  058%=      5-min Rain = 0
KTA1 221812Z 13006KT 15/07 A2989 RMK A01 T01530071  RH  058%=      5-min Rain = 0
KTA1 221813Z 13004KT 15/07 A2989 RMK A01 T01540073  RH  058%=      5-min Rain = 0
KTA1 221814Z 14003KT 15/07 A2988 RMK A01 T01540072  RH  058%=      5-min Rain = 0
KTA1 221815Z 13005KT 15/07 A2988 RMK A01 T01540073  RH  059%=      5-min Rain = 0
KTA1 221816Z 11005KT 15/07 A2988 RMK A01 T01540072  RH  058%=      5-min Rain = 0
KTA1 221817Z 11004KT 15/07 A2988 RMK A01 T01510070  RH  059%=      5-min Rain = 0
KTA1 221818Z 12007KT 15/07 A2988 RMK A01 T01500072  RH  059%=      5-min Rain = 0
KTA1 221819Z 12008KT 15/07 A2988 RMK A01 T01510070  RH  058%=      5-min Rain = 0
KTA1 221820Z 12010KT 15/07 A2988 RMK A01 T01530070  RH  058%=      5-min Rain = 0
KTA1 221821Z 12009KT 15/07 A2988 RMK A01 T01540071  RH  057%=      5-min Rain = 0
KTA1 221822Z 12007KT 16/07 A2988 RMK A01 T01560071  RH  057%=      5-min Rain = 0
KTA1 221823Z 12006KT 16/07 A2988 RMK A01 T01560070  RH  056%=      5-min Rain = 0
KTA1 221824Z 13008KT 16/07 A2988 RMK A01 T01560071  RH  057%=      5-min Rain = 0
KTA1 221825Z 14009KT 16/07 A2988 RMK A01 T01580071  RH  056%=      5-min Rain = 0
KTA1 221826Z 14008KT 16/07 A2988 RMK A01 T01610070  RH  055%=      5-min Rain = 0
KTA1 221827Z 15007KT 16/07 A2988 RMK A01 T01620068  RH  054%=      5-min Rain = 0
KTA1 221828Z 13005KT 16/07 A2988 RMK A01 T01600068  RH  054%=      5-min Rain = 0
KTA1 221829Z 14007KT 16/07 A2988 RMK A01 T01600067  RH  054%=      5-min Rain = 0
KTA1 221830Z 13006KT 16/07 A2988 RMK A01 T01600066  RH  054%=      5-min Rain = 0
KTA1 221831Z 13002KT 16/07 A2988 RMK A01 T01600068  RH  054%=      5-min Rain = 0
KTA1 221832Z 14005KT 16/07 A2988 RMK A01 T01600069  RH  055%=      5-min Rain = 0
KTA1 221833Z 14007KT 16/07 A2988 RMK A01 T01600071  RH  055%=      5-min Rain = 0
KTA1 221834Z 15008KT 16/07 A2988 RMK A01 T01620069  RH  054%=      5-min Rain = 0
KTA1 221835Z 14006KT 16/07 A2987 RMK A01 T01620067  RH  053%=      5-min Rain = 0
KTA1 221836Z 13005KT 16/07 A2987 RMK A01 T01620068  RH  054%=      5-min Rain = 0
KTA1 221837Z 14007KT 16/07 A2987 RMK A01 T01630070  RH  054%=      5-min Rain = 0
KTA1 221838Z 13007KT 16/07 A2987 RMK A01 T01640071  RH  054%=      5-min Rain = 0
KTA1 221839Z 13007KT 17/07 A2987 RMK A01 T01650073  RH  055%=      5-min Rain = 0
KTA1 221840Z 12007KT 16/07 A2987 RMK A01 T01640072  RH  055%=      5-min Rain = 0
KTA1 221841Z 13005KT 16/07 A2987 RMK A01 T01620072  RH  055%=      5-min Rain = 0
KTA1 221842Z 14006KT 16/07 A2987 RMK A01 T01610072  RH  056%=      5-min Rain = 0
KTA1 221843Z 11006KT 16/07 A2987 RMK A01 T01640074  RH  055%=      5-min Rain = 0
KTA1 221844Z 15006KT 17/07 A2987 RMK A01 T01650072  RH  054%=      5-min Rain = 0
KTA1 221845Z 16006KT 17/07 A2987 RMK A01 T01660071  RH  053%=      5-min Rain = 0
KTA1 221846Z 15005KT 17/07 A2987 RMK A01 T01650068  RH  053%=      5-min Rain = 0
KTA1 221847Z 12002KT 16/07 A2987 RMK A01 T01640069  RH  053%=      5-min Rain = 0
KTA1 221848Z 15006KT 17/07 A2987 RMK A01 T01650069  RH  053%=      5-min Rain = 0
KTA1 221849Z 15008KT 17/07 A2987 RMK A01 T01670068  RH  052%=      5-min Rain = 0
KTA1 221850Z 15008KT 17/07 A2987 RMK A01 T01680068  RH  051%=      5-min Rain = 0
KTA1 221851Z 16011KT 17/07 A2986 RMK A01 T01710066  RH  050%=      5-min Rain = 0
KTA1 221852Z 16008KT 17/06 A2986 RMK A01 T01700063  RH  049%=      5-min Rain = 0
KTA1 221853Z 17005KT 17/06 A2986 RMK A01 T01690063  RH  049%=      5-min Rain = 0
KTA1 221854Z 17005KT 17/06 A2986 RMK A01 T01690062  RH  050%=      5-min Rain = 0
KTA1 221855Z 14007KT 17/07 A2986 RMK A01 T01670065  RH  051%=      5-min Rain = 0
KTA1 221856Z 11008KT 17/07 A2986 RMK A01 T01690066  RH  051%=      5-min Rain = 0
KTA1 221857Z 11008KT 17/07 A2986 RMK A01 T01690067  RH  051%=      5-min Rain = 0
KTA1 221858Z 12007KT 17/07 A2986 RMK A01 T01680068  RH  052%=      5-min Rain = 0
KTA1 221859Z 12007KT 17/07 A2986 RMK A01 T01720068  RH  050%=      5-min Rain = 0
KTA1 221900Z 13009KT 17/07 A2986 RMK A01 T01740067  RH  049%=      5-min Rain = 0
KTA1 221901Z 13007KT 17/07 A2986 RMK A01 T01730065  RH  049%=      5-min Rain = 0
KTA1 221902Z 12008KT 17/07 A2986 RMK A01 T01720066  RH  050%=      5-min Rain = 0
KTA1 221903Z 12006KT 17/06 A2986 RMK A01 T01710064  RH  049%=      5-min Rain = 0
KTA1 221904Z 13004KT 17/06 A2986 RMK A01 T01700064  RH  050%=      5-min Rain = 0
KTA1 221905Z 14003KT 17/07 A2986 RMK A01 T01710065  RH  050%=      5-min Rain = 0
KTA1 221906Z 14007KT 17/07 A2986 RMK A01 T01740068  RH  050%=      5-min Rain = 0
KTA1 221907Z 12005KT 18/07 A2986 RMK A01 T01750068  RH  049%=      5-min Rain = 0
KTA1 221908Z 13004KT 17/07 A2986 RMK A01 T01720068  RH  050%=      5-min Rain = 0
KTA1 221909Z 13005KT 17/07 A2986 RMK A01 T01720068  RH  051%=      5-min Rain = 0
KTA1 221910Z 12006KT 17/07 A2986 RMK A01 T01720067  RH  050%=      5-min Rain = 0
KTA1 221911Z 12004KT 17/07 A2985 RMK A01 T01720067  RH  050%=      5-min Rain = 0
KTA1 221912Z 16003KT 17/07 A2985 RMK A01 T01710066  RH  050%=      5-min Rain = 0
KTA1 221913Z 12007KT 17/07 A2985 RMK A01 T01720067  RH  050%=      5-min Rain = 0
KTA1 221914Z 13008KT 17/07 A2985 RMK A01 T01740065  RH  049%=      5-min Rain = 0
KTA1 221915Z 13008KT 18/07 A2985 RMK A01 T01750065  RH  048%=      5-min Rain = 0
KTA1 221916Z 12007KT 18/06 A2985 RMK A01 T01750063  RH  048%=      5-min Rain = 0
KTA1 221917Z 12008KT 18/06 A2985 RMK A01 T01750064  RH  048%=      5-min Rain = 0
KTA1 221918Z 15008KT 18/06 A2985 RMK A01 T01770062  RH  047%=      5-min Rain = 0
KTA1 221919Z 14005KT 18/06 A2985 RMK A01 T01780061  RH  046%=      5-min Rain = 0
KTA1 221920Z 11008KT 18/06 A2984 RMK A01 T01790061  RH  046%=      5-min Rain = 0
KTA1 221921Z 11009KT 18/06 A2984 RMK A01 T01790063  RH  047%=      5-min Rain = 0
KTA1 221922Z 12007KT 18/06 A2984 RMK A01 T01780060  RH  046%=      5-min Rain = 0
KTA1 221923Z 12004KT 18/06 A2984 RMK A01 T01750058  RH  046%=      5-min Rain = 0
KTA1 221924Z 09004KT 17/06 A2984 RMK A01 T01730059  RH  047%=      5-min Rain = 0
KTA1 221925Z 09004KT 17/06 A2984 RMK A01 T01720060  RH  048%=      5-min Rain = 0
KTA1 221926Z 10010KT 17/06 A2984 RMK A01 T01720062  RH  048%=      5-min Rain = 0
KTA1 221927Z 09009KT 18/06 A2984 RMK A01 T01750063  RH  048%=      5-min Rain = 0
KTA1 221928Z 10005KT 18/06 A2984 RMK A01 T01760062  RH  047%=      5-min Rain = 0
KTA1 221929Z 16008KT 18/06 A2984 RMK A01 T01750063  RH  047%=      5-min Rain = 0
KTA1 221930Z 13007KT 18/06 A2984 RMK A01 T01770060  RH  046%=      5-min Rain = 0
KTA1 221931Z 12008KT 18/06 A2984 RMK A01 T01780058  RH  045%=      5-min Rain = 0
KTA1 221932Z 13005KT 18/06 A2984 RMK A01 T01750056  RH  046%=      5-min Rain = 0
KTA1 221933Z 11005KT 17/06 A2984 RMK A01 T01740058  RH  046%=      5-min Rain = 0
KTA1 221934Z 12009KT 18/06 A2984 RMK A01 T01750057  RH  046%=      5-min Rain = 0
KTA1 221935Z 14009KT 18/05 A2984 RMK A01 T01790051  RH  043%=      5-min Rain = 0
KTA1 221936Z 14009KT 18/05 A2984 RMK A01 T01830047  RH  041%=      5-min Rain = 0
KTA1 221937Z 15008KT 18/05 A2984 RMK A01 T01840046  RH  040%=      5-min Rain = 0
KTA1 221938Z 16006KT 18/05 A2983 RMK A01 T01840048  RH  041%=      5-min Rain = 0
KTA1 221939Z 16006KT 18/05 A2983 RMK A01 T01840048  RH  041%=      5-min Rain = 0
KTA1 221940Z 15007KT 18/05 A2983 RMK A01 T01840050  RH  041%=      5-min Rain = 0
KTA1 221941Z 11007G12KT 18/06 A2983 RMK A01 T01830057  RH  043%=      5-min Rain = 0
KTA1 221942Z 10008KT 18/06 A2983 RMK A01 T01840057  RH  043%=      5-min Rain = 0
KTA1 221943Z 12006KT 18/06 A2983 RMK A01 T01830056  RH  043%=      5-min Rain = 0
KTA1 221944Z 13006KT 18/06 A2983 RMK A01 T01840057  RH  043%=      5-min Rain = 0
KTA1 221945Z 13009KT 19/05 A2983 RMK A01 T01870051  RH  041%=      5-min Rain = 0
KTA1 221946Z 14009KT 19/05 A2982 RMK A01 T01870047  RH  040%=      5-min Rain = 0
KTA1 221947Z 14009KT 19/05 A2982 RMK A01 T01880046  RH  039%=      5-min Rain = 0
KTA1 221948Z 13006KT 19/04 A2982 RMK A01 T01880044  RH  039%=      5-min Rain = 0
KTA1 221949Z 13006KT 19/05 A2982 RMK A01 T01850046  RH  040%=      5-min Rain = 0
KTA1 221950Z 14006KT 19/05 A2982 RMK A01 T01850047  RH  040%=      5-min Rain = 0
KTA1 221951Z 14005KT 18/05 A2982 RMK A01 T01840048  RH  041%=      5-min Rain = 0
KTA1 221952Z 17002KT 18/05 A2982 RMK A01 T01840045  RH  040%=      5-min Rain = 0
KTA1 221953Z 13006KT 18/05 A2982 RMK A01 T01830047  RH  040%=      5-min Rain = 0
KTA1 221954Z 13009KT 19/05 A2982 RMK A01 T01850054  RH  042%=      5-min Rain = 0
KTA1 221955Z 15010KT 19/05 A2981 RMK A01 T01890054  RH  041%=      5-min Rain = 0
KTA1 221956Z 15004KT 19/05 A2981 RMK A01 T01890051  RH  040%=      5-min Rain = 0
KTA1 221957Z 13002KT 19/05 A2981 RMK A01 T01860052  RH  041%=      5-min Rain = 0
KTA1 221958Z 15001KT 19/05 A2981 RMK A01 T01850052  RH  042%=      5-min Rain = 0
KTA1 221959Z 15002KT 19/05 A2981 RMK A01 T01850052  RH  042%=      5-min Rain = 0
KTA1 222000Z 13003KT 19/05 A2981 RMK A01 T01870052  RH  041%=      5-min Rain = 0
KTA1 222001Z 11004KT 19/05 A2981 RMK A01 T01890052  RH  041%=      5-min Rain = 0
KTA1 222002Z 12004KT 19/05 A2981 RMK A01 T01890051  RH  040%=      5-min Rain = 0
KTA1 222003Z 09006KT 19/05 A2981 RMK A01 T01890051  RH  040%=      5-min Rain = 0
KTA1 222004Z 09008KT 19/05 A2981 RMK A01 T01890051  RH  040%=      5-min Rain = 0
KTA1 222005Z 10007KT 19/05 A2981 RMK A01 T01890051  RH  040%=      5-min Rain = 0
KTA1 222006Z 18009KT 19/05 A2981 RMK A01 T01900050  RH  040%=      5-min Rain = 0
KTA1 222007Z 17006KT 19/05 A2981 RMK A01 T01900047  RH  039%=      5-min Rain = 0
KTA1 222008Z 16006KT 19/05 A2981 RMK A01 T01900050  RH  040%=      5-min Rain = 0
KTA1 222009Z 15008KT 19/05 A2981 RMK A01 T01910048  RH  039%=      5-min Rain = 0
KTA1 222010Z 14009KT 19/04 A2981 RMK A01 T01930040  RH  036%=      5-min Rain = 0
KTA1 222011Z 14007KT 19/04 A298 RMK A01 T01930036  RH  035%=      5-min Rain = 0
KTA1 222012Z 14004KT 19/04 A298 RMK A01 T01920036  RH  036%=      5-min Rain = 0
KTA1 222013Z 10004KT 19/04 A298 RMK A01 T01910038  RH  036%=      5-min Rain = 0
KTA1 222014Z 10004KT 19/04 A298 RMK A01 T01910038  RH  036%=      5-min Rain = 0
KTA1 222015Z 08006KT 19/04 A298 RMK A01 T01890037  RH  036%=      5-min Rain = 0
KTA1 222016Z 14009KT 19/04 A298 RMK A01 T01890035  RH  036%=      5-min Rain = 0
KTA1 222017Z 16009KT 19/03 A298 RMK A01 T01940032  RH  034%=      5-min Rain = 0
KTA1 222018Z 18008KT 20/03 A298 RMK A01 T01970033  RH  034%=      5-min Rain = 0
KTA1 222019Z 15005KT 20/03 A298 RMK A01 T01960034  RH  034%=      5-min Rain = 0
KTA1 222020Z 14005KT 20/03 A298 RMK A01 T01950034  RH  034%=      5-min Rain = 0
KTA1 222021Z 14008KT 20/03 A298 RMK A01 T01950033  RH  034%=      5-min Rain = 0
KTA1 222022Z 12010KT 20/03 A298 RMK A01 T01960032  RH  034%=      5-min Rain = 0
KTA1 222023Z 12009KT 20/03 A298 RMK A01 T01980032  RH  033%=      5-min Rain = 0
KTA1 222024Z 12007KT 20/03 A298 RMK A01 T01980032  RH  033%=      5-min Rain = 0
KTA1 222025Z 13008KT 20/03 A298 RMK A01 T01970033  RH  034%=      5-min Rain = 0
KTA1 222026Z 13005KT 20/03 A298 RMK A01 T01990029  RH  033%=      5-min Rain = 0
KTA1 222027Z 11006KT 20/03 A2979 RMK A01 T01970029  RH  033%=      5-min Rain = 0
KTA1 222028Z 12005KT 20/03 A2979 RMK A01 T01950029  RH  033%=      5-min Rain = 0
KTA1 222029Z 15009KT 20/03 A2979 RMK A01 T01950030  RH  033%=      5-min Rain = 0
KTA1 222030Z 18007G13KT 20/02 A2979 RMK A01 T01980019  RH  031%=      5-min Rain = 0
KTA1 222031Z 19006KT 20/02 A2979 RMK A01 T01980019  RH  030%=      5-min Rain = 0
KTA1 222032Z 18005KT 20/02 A2979 RMK A01 T01970017  RH  030%=      5-min Rain = 0
KTA1 222033Z 17005KT 20/02 A2979 RMK A01 T01970019  RH  030%=      5-min Rain = 0
KTA1 222034Z 14007KT 20/02 A2979 RMK A01 T01990023  RH  031%=      5-min Rain = 0
KTA1 222035Z 15008KT 20/02 A2979 RMK A01 T02000024  RH  031%=      5-min Rain = 0
KTA1 222036Z 13007KT 20/03 A2979 RMK A01 T02020025  RH  031%=      5-min Rain = 0
KTA1 222037Z 14007KT 20/02 A2979 RMK A01 T02030023  RH  030%=      5-min Rain = 0
KTA1 222038Z 17008KT 20/02 A2978 RMK A01 T02020022  RH  030%=      5-min Rain = 0
KTA1 222039Z 17009KT 20/02 A2978 RMK A01 T02030020  RH  030%=      5-min Rain = 0
KTA1 222040Z 17008KT 20/01 A2979 RMK A01 T02040014  RH  028%=      5-min Rain = 0
KTA1 222041Z 15005KT 20/02 A2979 RMK A01 T02010016  RH  029%=      5-min Rain = 0
KTA1 222042Z 14003KT 20/02 A2978 RMK A01 T02020015  RH  029%=      5-min Rain = 0
KTA1 222043Z 16005KT 20/02 A2978 RMK A01 T02020015  RH  029%=      5-min Rain = 0
KTA1 222044Z 15006KT 20/02 A2978 RMK A01 T02020016  RH  029%=      5-min Rain = 0
KTA1 222045Z 13003KT 20/02 A2978 RMK A01 T02020017  RH  029%=      5-min Rain = 0
KTA1 222046Z 14005KT 20/02 A2978 RMK A01 T02020018  RH  029%=      5-min Rain = 0
KTA1 222047Z 13008KT 20/02 A2978 RMK A01 T02040021  RH  030%=      5-min Rain = 0
KTA1 222048Z 12010KT 21/02 A2978 RMK A01 T02050022  RH  030%=      5-min Rain = 0
KTA1 222049Z 14011KT 21/02 A2978 RMK A01 T02050017  RH  029%=      5-min Rain = 0
KTA1 222050Z 17010KT 21/02 A2978 RMK A01 T02050015  RH  028%=      5-min Rain = 0
KTA1 222051Z 18012KT 21/01 A2978 RMK A01 T02070013  RH  028%=      5-min Rain = 0
KTA1 222052Z 18009G14KT 21/01 A2978 RMK A01 T02060011  RH  027%=      5-min Rain = 0
KTA1 222053Z 17007KT 20/01 A2978 RMK A01 T02040010  RH  027%=      5-min Rain = 0
KTA1 222054Z 18005KT 20/01 A2978 RMK A01 T02040009  RH  027%=      5-min Rain = 0
KTA1 222055Z 15008KT 20/01 A2978 RMK A01 T02040010  RH  027%=      5-min Rain = 0
KTA1 222056Z 14011KT 20/01 A2978 RMK A01 T02040011  RH  028%=      5-min Rain = 0
KTA1 222057Z 15011KT 21/01 A2978 RMK A01 T02050014  RH  028%=      5-min Rain = 0
KTA1 222058Z 15008KT 21/01 A2978 RMK A01 T02050013  RH  028%=      5-min Rain = 0
KTA1 222059Z 13006KT 20/01 A2978 RMK A01 T02030014  RH  028%=      5-min Rain = 0
KTA1 222100Z 13006KT 20/02 A2978 RMK A01 T02030015  RH  029%=      5-min Rain = 0
KTA1 222101Z 13004KT 20/02 A2978 RMK A01 T02030015  RH  029%=      5-min Rain = 0
KTA1 222102Z 13003KT 20/02 A2978 RMK A01 T02030015  RH  029%=      5-min Rain = 0
KTA1 222103Z 13005KT 20/02 A2978 RMK A01 T02040015  RH  028%=      5-min Rain = 0
KTA1 222104Z 15004KT 20/02 A2978 RMK A01 T02030016  RH  029%=      5-min Rain = 0
KTA1 222105Z 15010KT 20/02 A2978 RMK A01 T02040018  RH  029%=      5-min Rain = 0
KTA1 222106Z 16011KT 21/02 A2978 RMK A01 T02060017  RH  028%=      5-min Rain = 0
KTA1 222107Z 17012KT 21/02 A2978 RMK A01 T02060016  RH  028%=      5-min Rain = 0
KTA1 222108Z 18007KT 21/01 A2978 RMK A01 T02060014  RH  028%=      5-min Rain = 0
KTA1 222109Z 18006KT 21/01 A2978 RMK A01 T02050013  RH  028%=      5-min Rain = 0
KTA1 222110Z 19005KT 20/01 A2978 RMK A01 T02040012  RH  028%=      5-min Rain = 0
KTA1 222111Z 15006G11KT 20/01 A2978 RMK A01 T02030012  RH  028%=      5-min Rain = 0
KTA1 222112Z 13012KT 20/01 A2978 RMK A01 T02030013  RH  028%=      5-min Rain = 0
KTA1 222113Z 15009KT 21/01 A2978 RMK A01 T02050012  RH  028%=      5-min Rain = 0
KTA1 222114Z 15007KT 21/02 A2978 RMK A01 T02050015  RH  028%=      5-min Rain = 0
KTA1 222115Z 14006KT 21/01 A2978 RMK A01 T02060014  RH  028%=      5-min Rain = 0
KTA1 222116Z 16004KT 21/01 A2978 RMK A01 T02050013  RH  028%=      5-min Rain = 0
KTA1 222117Z 15007KT 21/01 A2978 RMK A01 T02050014  RH  028%=      5-min Rain = 0
KTA1 222118Z 15007KT 21/01 A2978 RMK A01 T02070011  RH  027%=      5-min Rain = 0
KTA1 222119Z 18008KT 21/01 A2978 RMK A01 T02090008  RH  026%=      5-min Rain = 0
KTA1 222120Z 17009KT 21/01 A2978 RMK A01 T02090010  RH  027%=      5-min Rain = 0
KTA1 222121Z 16010KT 21/01 A2978 RMK A01 T02110012  RH  027%=      5-min Rain = 0
KTA1 222122Z 15011KT 21/01 A2978 RMK A01 T02120009  RH  026%=      5-min Rain = 0
KTA1 222123Z 15012KT 21/01 A2978 RMK A01 T02120006  RH  025%=      5-min Rain = 0
KTA1 222124Z 15011KT 21/01 A2978 RMK A01 T02120005  RH  025%=      5-min Rain = 0
KTA1 222125Z 16010KT 21/00 A2978 RMK A01 T02110004  RH  025%=      5-min Rain = 0
KTA1 222126Z 16012KT 21/01 A2978 RMK A01 T02110005  RH  025%=      5-min Rain = 0
KTA1 222127Z 17009KT 21/00 A2978 RMK A01 T02110002  RH  025%=      5-min Rain = 0
KTA1 222128Z 15009KT 21/00 A2977 RMK A01 T02110004  RH  025%=      5-min Rain = 0
KTA1 222129Z 14013G19KT 21/00 A2977 RMK A01 T02120003  RH  025%=      5-min Rain = 0
KTA1 222130Z 15011G16KT 21/M00 A2977 RMK A01 T02121004  RH  024%=      5-min Rain = 0
KTA1 222131Z 15011KT 21/M00 A2977 RMK A01 T02111003  RH  024%=      5-min Rain = 0
KTA1 222132Z 16009KT 21/M00 A2977 RMK A01 T02101001  RH  025%=      5-min Rain = 0
KTA1 222133Z 15008KT 21/00 A2977 RMK A01 T02090001  RH  025%=      5-min Rain = 0
KTA1 222134Z 13007KT 21/00 A2977 RMK A01 T02090002  RH  025%=      5-min Rain = 0
KTA1 222135Z 13006KT 21/00 A2977 RMK A01 T02090002  RH  025%=      5-min Rain = 0
KTA1 222136Z 14007KT 21/00 A2977 RMK A01 T02100003  RH  025%=      5-min Rain = 0
KTA1 222137Z 14007KT 21/00 A2977 RMK A01 T02100003  RH  025%=      5-min Rain = 0
KTA1 222138Z 16008KT 21/00 A2977 RMK A01 T02110004  RH  025%=      5-min Rain = 0
KTA1 222139Z 16009KT 21/M00 A2977 RMK A01 T02131001  RH  024%=      5-min Rain = 0
KTA1 222140Z 16009G14KT 21/M00 A2977 RMK A01 T02131001  RH  024%=      5-min Rain = 0
KTA1 222141Z 15012KT 22/00 A2977 RMK A01 T02150002  RH  024%=      5-min Rain = 0
KTA1 222142Z 15011KT 22/00 A2977 RMK A01 T02160001  RH  024%=      5-min Rain = 0
KTA1 222143Z 16012KT 22/00 A2977 RMK A01 T02160004  RH  024%=      5-min Rain = 0
KTA1 222144Z 15010KT 22/00 A2977 RMK A01 T02160004  RH  024%=      5-min Rain = 0
KTA1 222145Z 16010KT 22/00 A2977 RMK A01 T02160001  RH  024%=      5-min Rain = 0
KTA1 222146Z 14008KT 21/M00 A2977 RMK A01 T02141002  RH  024%=      5-min Rain = 0
KTA1 222147Z 15005KT 21/M00 A2977 RMK A01 T02111004  RH  024%=      5-min Rain = 0
KTA1 222148Z 13008G14KT 21/00 A2977 RMK A01 T02100001  RH  025%=      5-min Rain = 0
KTA1 222149Z 15011KT 21/01 A2977 RMK A01 T02110005  RH  025%=      5-min Rain = 0
KTA1 222150Z 15010KT 21/01 A2977 RMK A01 T02110008  RH  026%=      5-min Rain = 0
KTA1 222151Z 14012KT 21/01 A2977 RMK A01 T02110009  RH  026%=      5-min Rain = 0
KTA1 222152Z 14011KT 21/01 A2977 RMK A01 T02110009  RH  026%=      5-min Rain = 0
KTA1 222153Z 13009KT 21/01 A2977 RMK A01 T02120010  RH  026%=      5-min Rain = 0
KTA1 222154Z 15008KT 21/01 A2976 RMK A01 T02120010  RH  026%=      5-min Rain = 0
KTA1 222155Z 16012KT 21/01 A2976 RMK A01 T02120012  RH  026%=      5-min Rain = 0
KTA1 222156Z 17011KT 21/01 A2976 RMK A01 T02130012  RH  026%=      5-min Rain = 0
KTA1 222157Z 13010KT 21/01 A2976 RMK A01 T02140013  RH  026%=      5-min Rain = 0
KTA1 222158Z 13009KT 22/01 A2976 RMK A01 T02150012  RH  026%=      5-min Rain = 0
KTA1 222159Z 15011KT 21/01 A2976 RMK A01 T02140006  RH  025%=      5-min Rain = 0
KTA1 222200Z 16008KT 21/00 A2976 RMK A01 T02130004  RH  025%=      5-min Rain = 0
KTA1 222201Z 19007KT 21/00 A2976 RMK A01 T02120004  RH  025%=      5-min Rain = 0
KTA1 222202Z 15008KT 21/00 A2976 RMK A01 T02100003  RH  025%=      5-min Rain = 0
KTA1 222203Z 15007KT 21/01 A2976 RMK A01 T02100005  RH  026%=      5-min Rain = 0
KTA1 222204Z 15009G14KT 21/01 A2976 RMK A01 T02110006  RH  025%=      5-min Rain = 0
KTA1 222205Z 15013KT 21/00 A2976 RMK A01 T02130004  RH  025%=      5-min Rain = 0
KTA1 222206Z 16015KT 21/00 A2976 RMK A01 T02140001  RH  024%=      5-min Rain = 0
KTA1 222207Z 16015KT 21/M00 A2976 RMK A01 T02141001  RH  024%=      5-min Rain = 0
KTA1 222208Z 17015KT 21/M01 A2976 RMK A01 T02131005  RH  023%=      5-min Rain = 0
KTA1 222209Z 16015KT 21/M01 A2976 RMK A01 T02121008  RH  023%=      5-min Rain = 0
KTA1 222210Z 16013KT 21/M01 A2976 RMK A01 T02131010  RH  023%=      5-min Rain = 0
KTA1 222211Z 17012KT 21/M01 A2976 RMK A01 T02131008  RH  023%=      5-min Rain = 0
KTA1 222212Z 18010KT 21/M01 A2976 RMK A01 T02141007  RH  023%=      5-min Rain = 0
KTA1 222213Z 17008KT 21/M01 A2976 RMK A01 T02141006  RH  023%=      5-min Rain = 0
KTA1 222214Z 17008KT 22/M00 A2976 RMK A01 T02151004  RH  023%=      5-min Rain = 0
KTA1 222215Z 15011G16KT 22/M00 A2976 RMK A01 T02161003  RH  023%=      5-min Rain = 0
KTA1 222216Z 14012KT 22/M00 A2976 RMK A01 T02171002  RH  023%=      5-min Rain = 0
KTA1 222217Z 14012KT 22/M00 A2976 RMK A01 T02171003  RH  023%=      5-min Rain = 0
KTA1 222218Z 16010KT 22/M00 A2976 RMK A01 T02171004  RH  023%=      5-min Rain = 0
KTA1 222219Z 17008KT 22/M00 A2976 RMK A01 T02161002  RH  023%=      5-min Rain = 0
KTA1 222220Z 14011KT 22/M00 A2976 RMK A01 T02161003  RH  023%=      5-min Rain = 0
KTA1 222221Z 14012KT 22/M00 A2976 RMK A01 T02151003  RH  023%=      5-min Rain = 0
KTA1 222222Z 14008KT 21/M01 A2976 RMK A01 T02141006  RH  023%=      5-min Rain = 0
KTA1 222223Z 14009KT 21/M00 A2975 RMK A01 T02131004  RH  024%=      5-min Rain = 0
KTA1 222224Z 15011KT 21/M00 A2975 RMK A01 T02141003  RH  023%=      5-min Rain = 0
KTA1 222225Z 15012KT 22/M00 A2975 RMK A01 T02151002  RH  024%=      5-min Rain = 0
KTA1 222226Z 14015KT 22/M00 A2975 RMK A01 T02161002  RH  023%=      5-min Rain = 0
KTA1 222227Z 14014KT 22/M00 A2975 RMK A01 T02151004  RH  023%=      5-min Rain = 0
KTA1 222228Z 14013KT 21/M01 A2975 RMK A01 T02141005  RH  023%=      5-min Rain = 0
KTA1 222229Z 14014KT 21/M00 A2975 RMK A01 T02141003  RH  023%=      5-min Rain = 0
KTA1 222230Z 16012KT 22/M00 A2975 RMK A01 T02151001  RH  024%=      5-min Rain = 0
KTA1 222231Z 14015KT 21/00 A2975 RMK A01 T02140002  RH  024%=      5-min Rain = 0
KTA1 222232Z 15014KT 22/00 A2975 RMK A01 T02150004  RH  025%=      5-min Rain = 0
KTA1 222233Z 15013KT 21/01 A2975 RMK A01 T02140006  RH  025%=      5-min Rain = 0
KTA1 222234Z 15012KT 21/01 A2975 RMK A01 T02140009  RH  026%=      5-min Rain = 0
KTA1 222235Z 13009KT 21/01 A2975 RMK A01 T02140010  RH  026%=      5-min Rain = 0
KTA1 222236Z 14009KT 21/01 A2975 RMK A01 T02140011  RH  026%=      5-min Rain = 0
KTA1 222237Z 13012KT 21/01 A2975 RMK A01 T02140011  RH  026%=      5-min Rain = 0
KTA1 222238Z 13014KT 21/01 A2975 RMK A01 T02140011  RH  026%=      5-min Rain = 0
KTA1 222239Z 14015KT 22/01 A2974 RMK A01 T02150009  RH  026%=      5-min Rain = 0
KTA1 222240Z 14010KT 21/01 A2974 RMK A01 T02140010  RH  026%=      5-min Rain = 0
KTA1 222241Z 14013KT 21/01 A2974 RMK A01 T02140010  RH  026%=      5-min Rain = 0
KTA1 222242Z 14012KT 22/00 A2974 RMK A01 T02150003  RH  024%=      5-min Rain = 0
KTA1 222243Z 14012KT 22/00 A2974 RMK A01 T02150002  RH  024%=      5-min Rain = 0
KTA1 222244Z 15012KT 21/01 A2974 RMK A01 T02140005  RH  025%=      5-min Rain = 0
KTA1 222245Z 14012KT 21/01 A2974 RMK A01 T02140006  RH  025%=      5-min Rain = 0
KTA1 222246Z 15011KT 22/00 A2974 RMK A01 T02150003  RH  024%=      5-min Rain = 0
KTA1 222247Z 16011KT 22/M00 A2974 RMK A01 T02171001  RH  023%=      5-min Rain = 0
KTA1 222248Z 16009KT 22/M01 A2974 RMK A01 T02181010  RH  022%=      5-min Rain = 0
KTA1 222249Z 15010KT 22/M01 A2974 RMK A01 T02181010  RH  022%=      5-min Rain = 0
KTA1 222250Z 15010KT 22/M01 A2974 RMK A01 T02171012  RH  022%=      5-min Rain = 0
KTA1 222251Z 15009G14KT 22/M01 A2974 RMK A01 T02161010  RH  022%=      5-min Rain = 0
KTA1 222252Z 15014KT 22/M01 A2974 RMK A01 T02161008  RH  022%=      5-min Rain = 0
KTA1 222253Z 16013KT 22/M01 A2974 RMK A01 T02161007  RH  022%=      5-min Rain = 0
KTA1 222254Z 16011KT 22/M01 A2974 RMK A01 T02161007  RH  023%=      5-min Rain = 0
KTA1 222255Z 15012KT 22/M01 A2974 RMK A01 T02151005  RH  023%=      5-min Rain = 0
KTA1 222256Z 15011KT 22/M00 A2973 RMK A01 T02151002  RH  024%=      5-min Rain = 0
KTA1 222257Z 15010KT 21/M00 A2974 RMK A01 T02141001  RH  024%=      5-min Rain = 0
KTA1 222258Z 15013KT 21/00 A2973 RMK A01 T02140000  RH  024%=      5-min Rain = 0
KTA1 222259Z 16013KT 21/00 A2973 RMK A01 T02140003  RH  025%=      5-min Rain = 0
KTA1 222300Z 17014KT 21/00 A2973 RMK A01 T02140004  RH  025%=      5-min Rain = 0
KTA1 222301Z 16011KT 21/00 A2973 RMK A01 T02130003  RH  025%=      5-min Rain = 0
KTA1 222302Z 15009KT 21/00 A2973 RMK A01 T02120004  RH  025%=      5-min Rain = 0
KTA1 222303Z 16012KT 21/01 A2973 RMK A01 T02120005  RH  025%=      5-min Rain = 0
KTA1 222304Z 14011KT 21/01 A2973 RMK A01 T02120007  RH  026%=      5-min Rain = 0
KTA1 222305Z 15014KT 21/01 A2973 RMK A01 T02130010  RH  026%=      5-min Rain = 0
KTA1 222306Z 15016KT 21/01 A2973 RMK A01 T02140012  RH  026%=      5-min Rain = 0
KTA1 222307Z 14017KT 21/01 A2973 RMK A01 T02130012  RH  026%=      5-min Rain = 0
KTA1 222308Z 14015KT 21/01 A2973 RMK A01 T02120012  RH  026%=      5-min Rain = 0
KTA1 222309Z 14012KT 21/01 A2973 RMK A01 T02120012  RH  026%=      5-min Rain = 0
KTA1 222310Z 15013KT 21/01 A2973 RMK A01 T02110011  RH  026%=      5-min Rain = 0
KTA1 222311Z 15013KT 21/01 A2973 RMK A01 T02110011  RH  027%=      5-min Rain = 0
KTA1 222312Z 15010KT 21/01 A2973 RMK A01 T02100011  RH  027%=      5-min Rain = 0
KTA1 222313Z 15011KT 21/01 A2973 RMK A01 T02100012  RH  027%=      5-min Rain = 0
KTA1 222314Z 14013KT 21/01 A2973 RMK A01 T02100014  RH  027%=      5-min Rain = 0
KTA1 222315Z 13012KT 21/01 A2973 RMK A01 T02110014  RH  027%=      5-min Rain = 0
KTA1 222316Z 13012KT 21/01 A2973 RMK A01 T02110013  RH  027%=      5-min Rain = 0
KTA1 222317Z 13012KT 21/01 A2973 RMK A01 T02100014  RH  027%=      5-min Rain = 0
KTA1 222318Z 14013KT 21/02 A2973 RMK A01 T02100015  RH  027%=      5-min Rain = 0
KTA1 222319Z 15011KT 21/01 A2973 RMK A01 T02110014  RH  027%=      5-min Rain = 0
KTA1 222320Z 13013KT 21/02 A2973 RMK A01 T02100015  RH  027%=      5-min Rain = 0
KTA1 222321Z 13014KT 21/01 A2973 RMK A01 T02110014  RH  027%=      5-min Rain = 0
KTA1 222322Z 13014KT 21/01 A2973 RMK A01 T02110013  RH  027%=      5-min Rain = 0
KTA1 222323Z 13014KT 21/01 A2972 RMK A01 T02110012  RH  027%=      5-min Rain = 0
KTA1 222324Z 13015KT 21/01 A2972 RMK A01 T02100012  RH  027%=      5-min Rain = 0
KTA1 222325Z 13015KT 21/01 A2972 RMK A01 T02100011  RH  027%=      5-min Rain = 0
KTA1 222326Z 13012KT 21/01 A2972 RMK A01 T02090010  RH  027%=      5-min Rain = 0
KTA1 222327Z 14013KT 21/01 A2973 RMK A01 T02090011  RH  027%=      5-min Rain = 0
KTA1 222328Z 13014KT 21/01 A2972 RMK A01 T02090011  RH  027%=      5-min Rain = 0
KTA1 222329Z 13011KT 21/01 A2972 RMK A01 T02090011  RH  027%=      5-min Rain = 0
KTA1 222330Z 13010KT 21/01 A2972 RMK A01 T02090012  RH  027%=      5-min Rain = 0
KTA1 222331Z 14010KT 21/01 A2972 RMK A01 T02090013  RH  027%=      5-min Rain = 0
KTA1 222332Z 13008KT 21/01 A2972 RMK A01 T02090014  RH  027%=      5-min Rain = 0
KTA1 222333Z 13010KT 21/01 A2972 RMK A01 T02090013  RH  027%=      5-min Rain = 0
KTA1 222334Z 12013KT 21/01 A2972 RMK A01 T02100007  RH  026%=      5-min Rain = 0
KTA1 222335Z 13014KT 21/01 A2972 RMK A01 T02100005  RH  026%=      5-min Rain = 0
KTA1 222336Z 13013KT 21/01 A2972 RMK A01 T02100005  RH  025%=      5-min Rain = 0
KTA1 222337Z 13012KT 21/00 A2971 RMK A01 T02100004  RH  025%=      5-min Rain = 0
KTA1 222338Z 13012KT 21/00 A2971 RMK A01 T02100004  RH  025%=      5-min Rain = 0
KTA1 222339Z 14011KT 21/00 A2971 RMK A01 T02100004  RH  025%=      5-min Rain = 0
KTA1 222340Z 13012KT 21/01 A2971 RMK A01 T02100005  RH  025%=      5-min Rain = 0
KTA1 222341Z 14011KT 21/00 A2971 RMK A01 T02100003  RH  025%=      5-min Rain = 0
KTA1 222342Z 15011KT 21/00 A2972 RMK A01 T02100003  RH  025%=      5-min Rain = 0
KTA1 222343Z 14010KT 21/00 A2972 RMK A01 T02110004  RH  025%=      5-min Rain = 0
KTA1 222344Z 14012KT 21/00 A2972 RMK A01 T02110004  RH  025%=      5-min Rain = 0
KTA1 222345Z 14013KT 21/00 A2972 RMK A01 T02100004  RH  025%=      5-min Rain = 0
KTA1 222346Z 14013KT 21/00 A2972 RMK A01 T02100004  RH  025%=      5-min Rain = 0
KTA1 222347Z 15013KT 21/00 A2972 RMK A01 T02100003  RH  025%=      5-min Rain = 0
KTA1 222348Z 15016KT 21/00 A2971 RMK A01 T02090003  RH  025%=      5-min Rain = 0
KTA1 222349Z 15014KT 21/00 A2971 RMK A01 T02090002  RH  025%=      5-min Rain = 0
KTA1 222350Z 15012KT 21/00 A2971 RMK A01 T02080002  RH  025%=      5-min Rain = 0
KTA1 222351Z 15012KT 21/00 A2971 RMK A01 T02080003  RH  025%=      5-min Rain = 0
KTA1 222352Z 14011KT 21/00 A2972 RMK A01 T02080004  RH  026%=      5-min Rain = 0
KTA1 222353Z 14012KT 21/01 A2972 RMK A01 T02070005  RH  026%=      5-min Rain = 0
KTA1 222354Z 13011KT 21/00 A2972 RMK A01 T02070004  RH  026%=      5-min Rain = 0
KTA1 222355Z 14012KT 21/00 A2972 RMK A01 T02070004  RH  026%=      5-min Rain = 0
KTA1 222356Z 14013KT 21/00 A2972 RMK A01 T02060004  RH  026%=      5-min Rain = 0
KTA1 222357Z 14012KT 21/00 A2971 RMK A01 T02050004  RH  026%=      5-min Rain = 0
KTA1 222358Z 14011KT 21/00 A2971 RMK A01 T02050004  RH  026%=      5-min Rain = 0
KTA1 222359Z 14010KT 21/00 A2971 RMK A01 T02050004  RH  026%=      5-min Rain = 0
KTA1 230000Z 14009KT 21/01 A2971 RMK A01 T02050005  RH  026%=      5-min Rain = 0
KTA1 230001Z 14008KT 20/01 A2971 RMK A01 T02040005  RH  026%=      5-min Rain = 0
KTA1 230002Z 14010KT 20/01 A2971 RMK A01 T02040006  RH  027%=      5-min Rain = 0
KTA1 230003Z 14010KT 20/01 A2971 RMK A01 T02030005  RH  027%=      5-min Rain = 0
KTA1 230004Z 14010KT 20/00 A2971 RMK A01 T02030004  RH  026%=      5-min Rain = 0
KTA1 230005Z 13009KT 20/00 A2971 RMK A01 T02030004  RH  026%=      5-min Rain = 0
KTA1 230006Z 13008KT 20/01 A2971 RMK A01 T02020005  RH  027%=      5-min Rain = 0
KTA1 230007Z 13008KT 20/01 A2971 RMK A01 T02010006  RH  027%=      5-min Rain = 0
KTA1 230008Z 13009KT 20/01 A2971 RMK A01 T02010006  RH  027%=      5-min Rain = 0
KTA1 230009Z 13007KT 20/01 A2971 RMK A01 T02000006  RH  027%=      5-min Rain = 0
KTA1 230010Z 13008KT 20/01 A2971 RMK A01 T01990005  RH  027%=      5-min Rain = 0
KTA1 230011Z 13010KT 20/00 A2971 RMK A01 T01990004  RH  027%=      5-min Rain = 0
KTA1 230012Z 12008KT 20/00 A2971 RMK A01 T01980004  RH  027%=      5-min Rain = 0
KTA1 230013Z 12010KT 20/01 A2971 RMK A01 T01970005  RH  028%=      5-min Rain = 0
KTA1 230014Z 12010KT 20/01 A2971 RMK A01 T01970005  RH  028%=      5-min Rain = 0
KTA1 230015Z 12010KT 20/01 A2971 RMK A01 T01960006  RH  028%=      5-min Rain = 0
KTA1 230016Z 12009KT 20/01 A2971 RMK A01 T01960006  RH  028%=      5-min Rain = 0
KTA1 230017Z 11010KT 20/01 A2971 RMK A01 T01950005  RH  028%=      5-min Rain = 0
KTA1 230018Z 11010KT 19/00 A2971 RMK A01 T01940004  RH  028%=      5-min Rain = 0
KTA1 230019Z 12011KT 19/00 A2971 RMK A01 T01940004  RH  028%=      5-min Rain = 0
KTA1 230020Z 12010KT 19/00 A2972 RMK A01 T01940003  RH  028%=      5-min Rain = 0
KTA1 230021Z 12011KT 19/00 A2972 RMK A01 T01940003  RH  028%=      5-min Rain = 0
KTA1 230022Z 12011KT 19/00 A2972 RMK A01 T01930003  RH  028%=      5-min Rain = 0
KTA1 230023Z 12010KT 19/00 A2972 RMK A01 T01920002  RH  028%=      5-min Rain = 0
KTA1 230024Z 12010KT 19/00 A2972 RMK A01 T01920002  RH  028%=      5-min Rain = 0
KTA1 230025Z 11011KT 19/00 A2972 RMK A01 T01910002  RH  028%=      5-min Rain = 0
KTA1 230026Z 12014KT 19/00 A2972 RMK A01 T01910002  RH  028%=      5-min Rain = 0
KTA1 230027Z 12014KT 19/00 A2972 RMK A01 T01910004  RH  028%=      5-min Rain = 0
KTA1 230028Z 10012KT 19/00 A2972 RMK A01 T01920003  RH  028%=      5-min Rain = 0
KTA1 230029Z 08012KT 19/00 A2972 RMK A01 T01900002  RH  028%=      5-min Rain = 0
KTA1 230030Z 08016KT 19/03 A2973 RMK A01 T01870029  RH  035%=      5-min Rain = 0
KTA1 230031Z 08019KT 18/07 A2973 RMK A01 T01790066  RH  047%=      5-min Rain = 0
KTA1 230032Z 08017KT 17/07 A2973 RMK A01 T01710071  RH  051%=      5-min Rain = 0
KTA1 230033Z 07021KT 17/07 A2972 RMK A01 T01670074  RH  054%=      5-min Rain = 0
KTA1 230034Z 08021KT 16/08 A2972 RMK A01 T01620077  RH  057%=      5-min Rain = 0
KTA1 230035Z 07020KT 16/08 A2972 RMK A01 T01590078  RH  059%=      5-min Rain = 0
KTA1 230036Z 08017KT 16/08 A2972 RMK A01 T01580078  RH  059%=      5-min Rain = 0
KTA1 230037Z 07021KT 16/08 A2972 RMK A01 T01560079  RH  060%=      5-min Rain = 0
KTA1 230038Z 07021KT 16/08 A2972 RMK A01 T01550079  RH  061%=      5-min Rain = 0
KTA1 230039Z 07018KT 15/08 A2972 RMK A01 T01540080  RH  061%=      5-min Rain = 0
KTA1 230040Z 07016KT 15/08 A2972 RMK A01 T01530079  RH  061%=      5-min Rain = 0
KTA1 230041Z 07018G24KT 15/08 A2972 RMK A01 T01520079  RH  062%=      5-min Rain = 0
KTA1 230042Z 07019KT 15/08 A2972 RMK A01 T01510080  RH  063%=      5-min Rain = 0
KTA1 230043Z 07019KT 15/08 A2972 RMK A01 T01500081  RH  063%=      5-min Rain = 0
KTA1 230044Z 07018KT 15/08 A2972 RMK A01 T01490081  RH  064%=      5-min Rain = 0
KTA1 230045Z 07019KT 15/08 A2972 RMK A01 T01470081  RH  064%=      5-min Rain = 0
KTA1 230046Z 07017KT 15/08 A2972 RMK A01 T01460082  RH  065%=      5-min Rain = 0
KTA1 230047Z 07021KT 15/08 A2973 RMK A01 T01450083  RH  066%=      5-min Rain = 0
KTA1 230048Z 07022KT 15/08 A2972 RMK A01 T01450084  RH  067%=      5-min Rain = 0
KTA1 230049Z 07021KT 14/08 A2972 RMK A01 T01440084  RH  067%=      5-min Rain = 0
KTA1 230050Z 06020KT 14/08 A2972 RMK A01 T01440083  RH  067%=      5-min Rain = 0
KTA1 230051Z 06020KT 14/08 A2972 RMK A01 T01430082  RH  067%=      5-min Rain = 0
KTA1 230052Z 06017KT 14/08 A2972 RMK A01 T01420082  RH  067%=      5-min Rain = 0
KTA1 230053Z 07020KT 14/08 A2972 RMK A01 T01410082  RH  067%=      5-min Rain = 0
KTA1 230054Z 07019KT 14/08 A2972 RMK A01 T01400082  RH  068%=      5-min Rain = 0
KTA1 230055Z 06022KT 14/08 A2972 RMK A01 T01390082  RH  068%=      5-min Rain = 0
KTA1 230056Z 06023KT 14/08 A2972 RMK A01 T01380082  RH  069%=      5-min Rain = 0
KTA1 230057Z 06024KT 14/08 A2972 RMK A01 T01370082  RH  070%=      5-min Rain = 0
KTA1 230058Z 06026KT 14/08 A2972 RMK A01 T01360083  RH  070%=      5-min Rain = 0
KTA1 230059Z 06024KT 14/08 A2972 RMK A01 T01350083  RH  071%=      5-min Rain = 0
KTA1 230100Z 06022KT 13/08 A2972 RMK A01 T01340083  RH  071%=      5-min Rain = 0
KTA1 230101Z 06020KT 13/08 A2972 RMK A01 T01330082  RH  071%=      5-min Rain = 0
KTA1 230102Z 07021KT 13/08 A2972 RMK A01 T01320082  RH  071%=      5-min Rain = 0
KTA1 230103Z 07020KT 13/08 A2972 RMK A01 T01310082  RH  072%=      5-min Rain = 0
KTA1 230104Z 07020KT 13/08 A2972 RMK A01 T01310082  RH  072%=      5-min Rain = 0
KTA1 230105Z 07022KT 13/08 A2972 RMK A01 T01300082  RH  073%=      5-min Rain = 0
KTA1 230106Z 07022KT 13/08 A2972 RMK A01 T01300083  RH  073%=      5-min Rain = 0
KTA1 230107Z 07022KT 13/08 A2972 RMK A01 T01290082  RH  073%=      5-min Rain = 0
KTA1 230108Z 07020KT 13/08 A2972 RMK A01 T01290082  RH  073%=      5-min Rain = 0
KTA1 230109Z 07018KT 13/08 A2972 RMK A01 T01280082  RH  073%=      5-min Rain = 0
KTA1 230110Z 07019G24KT 13/08 A2972 RMK A01 T01270081  RH  074%=      5-min Rain = 0
KTA1 230111Z 07018KT 13/08 A2972 RMK A01 T01270081  RH  074%=      5-min Rain = 0
KTA1 230112Z 07019KT 13/08 A2972 RMK A01 T01260080  RH  074%=      5-min Rain = 0
KTA1 230113Z 07019KT 13/08 A2972 RMK A01 T01250080  RH  074%=      5-min Rain = 0
KTA1 230114Z 07022KT 12/08 A2973 RMK A01 T01230080  RH  075%=      5-min Rain = 0
KTA1 230115Z 07019KT 12/08 A2973 RMK A01 T01220079  RH  075%=      5-min Rain = 0
KTA1 230116Z 07018KT 12/08 A2973 RMK A01 T01220079  RH  075%=      5-min Rain = 0
KTA1 230117Z 07018KT 12/08 A2973 RMK A01 T01200079  RH  076%=      5-min Rain = 0
KTA1 230118Z 07018KT 12/08 A2973 RMK A01 T01200079  RH  076%=      5-min Rain = 0
KTA1 230119Z 07022KT 12/08 A2973 RMK A01 T01190079  RH  077%=      5-min Rain = 0
KTA1 230120Z 07019G24KT 12/08 A2972 RMK A01 T01190081  RH  077%=      5-min Rain = 0
KTA1 230121Z 07017KT 12/08 A2973 RMK A01 T01180079  RH  077%=      5-min Rain = 0
KTA1 230122Z 07017KT 12/08 A2973 RMK A01 T01180079  RH  077%=      5-min Rain = 0
KTA1 230123Z 07018KT 12/08 A2972 RMK A01 T01170078  RH  077%=      5-min Rain = 0
KTA1 230124Z 07020KT 12/08 A2972 RMK A01 T01150078  RH  078%=      5-min Rain = 0
KTA1 230125Z 07021KT 11/08 A2972 RMK A01 T01140078  RH  078%=      5-min Rain = 0
KTA1 230126Z 07019KT 11/08 A2972 RMK A01 T01130078  RH  079%=      5-min Rain = 0
KTA1 230127Z 07019KT 11/08 A2972 RMK A01 T01130078  RH  079%=      5-min Rain = 0
KTA1 230128Z 07016KT 11/08 A2972 RMK A01 T01130078  RH  079%=      5-min Rain = 0
KTA1 230129Z 07019KT 11/08 A2972 RMK A01 T01120078  RH  079%=      5-min Rain = 0
KTA1 230130Z 07018KT 11/08 A2972 RMK A01 T01130078  RH  080%=      5-min Rain = 0
KTA1 230131Z 07021KT 11/08 A2972 RMK A01 T01120078  RH  080%=      5-min Rain = 0
KTA1 230132Z 07018KT 11/08 A2972 RMK A01 T01110079  RH  080%=      5-min Rain = 0
KTA1 230133Z 07018KT 11/08 A2972 RMK A01 T01110078  RH  080%=      5-min Rain = 0
KTA1 230134Z 07016G21KT 11/08 A2972 RMK A01 T01100077  RH  080%=      5-min Rain = 0
KTA1 230135Z 07017KT 11/08 A2972 RMK A01 T01090076  RH  080%=      5-min Rain = 0
KTA1 230136Z 07018KT 11/08 A2972 RMK A01 T01080076  RH  081%=      5-min Rain = 0
KTA1 230137Z 07018KT 11/08 A2972 RMK A01 T01080077  RH  081%=      5-min Rain = 0
KTA1 230138Z 07021KT 11/08 A2972 RMK A01 T01070077  RH  082%=      5-min Rain = 0
KTA1 230139Z 07020KT 11/08 A2972 RMK A01 T01060078  RH  083%=      5-min Rain = 0
KTA1 230140Z 07021KT 11/08 A2972 RMK A01 T01060079  RH  083%=      5-min Rain = 0
KTA1 230141Z 07018KT 11/08 A2972 RMK A01 T01060078  RH  083%=      5-min Rain = 0
KTA1 230142Z 07018KT 11/08 A2972 RMK A01 T01050078  RH  083%=      5-min Rain = 0
KTA1 230143Z 07018KT 11/08 A2972 RMK A01 T01050077  RH  083%=      5-min Rain = 0
KTA1 230144Z 07018KT 10/08 A2972 RMK A01 T01040077  RH  083%=      5-min Rain = 0
KTA1 230145Z 07015KT 10/08 A2972 RMK A01 T01040077  RH  083%=      5-min Rain = 0
KTA1 230146Z 07019KT 10/08 A2972 RMK A01 T01040077  RH  083%=      5-min Rain = 0
KTA1 230147Z 07018KT 10/08 A2972 RMK A01 T01030077  RH  084%=      5-min Rain = 0
KTA1 230148Z 07016KT 10/08 A2972 RMK A01 T01030077  RH  084%=      5-min Rain = 0
KTA1 230149Z 07019KT 10/08 A2972 RMK A01 T01020076  RH  084%=      5-min Rain = 0
KTA1 230150Z 08019KT 10/08 A2972 RMK A01 T01020077  RH  084%=      5-min Rain = 0
KTA1 230151Z 07019KT 10/08 A2972 RMK A01 T01020078  RH  085%=      5-min Rain = 0
KTA1 230152Z 07019KT 10/08 A2972 RMK A01 T01020078  RH  085%=      5-min Rain = 0
KTA1 230153Z 07020KT 10/08 A2972 RMK A01 T01020079  RH  086%=      5-min Rain = 0
KTA1 230154Z 07017KT 10/08 A2972 RMK A01 T01010079  RH  086%=      5-min Rain = 0
KTA1 230155Z 08017G22KT 10/08 A2972 RMK A01 T01010078  RH  086%=      5-min Rain = 0
KTA1 230156Z 08022KT 10/08 A2972 RMK A01 T01000079  RH  087%=      5-min Rain = 0
KTA1 230157Z 08020KT 10/08 A2972 RMK A01 T01000080  RH  087%=      5-min Rain = 0
KTA1 230158Z 08019KT 10/08 A2972 RMK A01 T01000080  RH  087%=      5-min Rain = 0
KTA1 230159Z 07020KT 10/08 A2972 RMK A01 T01000079  RH  087%=      5-min Rain = 0
KTA1 230200Z 07019KT 10/08 A2972 RMK A01 T00990079  RH  087%=      5-min Rain = 0
KTA1 230201Z 07018KT 10/08 A2972 RMK A01 T00990079  RH  087%=      5-min Rain = 0
KTA1 230202Z 07020KT 10/08 A2972 RMK A01 T00990079  RH  088%=      5-min Rain = 0
KTA1 230203Z 07019KT 10/08 A2971 RMK A01 T00980079  RH  088%=      5-min Rain = 0
KTA1 230204Z 07020KT 10/08 A2971 RMK A01 T00980079  RH  088%=      5-min Rain = 0
KTA1 230205Z 08019KT 10/08 A2971 RMK A01 T00980079  RH  088%=      5-min Rain = 0
KTA1 230206Z 07019KT 10/08 A2971 RMK A01 T00980079  RH  088%=      5-min Rain = 0
KTA1 230207Z 07019KT 10/08 A2971 RMK A01 T00980079  RH  088%=      5-min Rain = 0
KTA1 230208Z 08018KT 10/08 A2971 RMK A01 T00970079  RH  089%=      5-min Rain = 0
KTA1 230209Z 08018KT 10/08 A2971 RMK A01 T00970079  RH  089%=      5-min Rain = 0
KTA1 230210Z 08016KT 10/08 A2971 RMK A01 T00970079  RH  089%=      5-min Rain = 0
KTA1 230211Z 08016G21KT 10/08 A2971 RMK A01 T00960079  RH  089%=      5-min Rain = 0
KTA1 230212Z 07019KT 10/08 A2971 RMK A01 T00970080  RH  089%=      5-min Rain = 0
KTA1 230213Z 08017KT 10/08 A2971 RMK A01 T00960079  RH  089%=      5-min Rain = 0
KTA1 230214Z 07017KT 10/08 A2971 RMK A01 T00960079  RH  089%=      5-min Rain = 0
KTA1 230215Z 08018KT 10/08 A2971 RMK A01 T00950079  RH  090%=      5-min Rain = 0
KTA1 230216Z 08019KT 10/08 A2971 RMK A01 T00950079  RH  090%=      5-min Rain = 0
KTA1 230217Z 08019KT 10/08 A2971 RMK A01 T00950080  RH  090%=      5-min Rain = 0
KTA1 230218Z 08018KT 10/08 A2971 RMK A01 T00950080  RH  090%=      5-min Rain = 0
KTA1 230219Z 07018G23KT 10/08 A2971 RMK A01 T00950079  RH  090%=      5-min Rain = 0
KTA1 230220Z 07018KT 10/08 A2971 RMK A01 T00950080  RH  090%=      5-min Rain = 0
KTA1 230221Z 08018KT 10/08 A2971 RMK A01 T00950080  RH  090%=      5-min Rain = 0
KTA1 230222Z 08018KT 09/08 A2971 RMK A01 T00940079  RH  090%=      5-min Rain = 0
KTA1 230223Z 08018KT 09/08 A2971 RMK A01 T00940079  RH  091%=      5-min Rain = 0
KTA1 230224Z 08017KT 09/08 A2971 RMK A01 T00940080  RH  091%=      5-min Rain = 0
KTA1 230225Z 07018G23KT 09/08 A297 RMK A01 T00940079  RH  091%=      5-min Rain = 0
KTA1 230226Z 08018KT 09/08 A297 RMK A01 T00940080  RH  091%=      5-min Rain = 0
KTA1 230227Z 08017G23KT 09/08 A2971 RMK A01 T00930080  RH  091%=      5-min Rain = 0
KTA1 230228Z 08020KT 09/08 A2971 RMK A01 T00930080  RH  091%=      5-min Rain = 0
KTA1 230229Z 08020KT 09/08 A2971 RMK A01 T00930080  RH  091%=      5-min Rain = 0
KTA1 230230Z 08018KT 09/08 A297 RMK A01 T00930080  RH  091%=      5-min Rain = 0
KTA1 230231Z 08019KT 09/08 A2971 RMK A01 T00930080  RH  091%=      5-min Rain = 0
KTA1 230232Z 08018KT 09/08 A297 RMK A01 T00930080  RH  092%=      5-min Rain = 0
KTA1 230233Z 08018KT 09/08 A297 RMK A01 T00930080  RH  091%=      5-min Rain = 0
KTA1 230234Z 08018KT 09/08 A297 RMK A01 T00930080  RH  092%=      5-min Rain = 0
KTA1 230235Z 08018KT 09/08 A297 RMK A01 T00930080  RH  092%=      5-min Rain = 0
KTA1 230236Z 08019KT 09/08 A297 RMK A01 T00930080  RH  092%=      5-min Rain = 0
KTA1 230237Z 08017G23KT 09/08 A297 RMK A01 T00930080  RH  092%=      5-min Rain = 0
KTA1 230238Z 08020KT 09/08 A297 RMK A01 T00930080  RH  092%=      5-min Rain = 0
KTA1 230239Z 08017G22KT 09/08 A297 RMK A01 T00930080  RH  092%=      5-min Rain = 0
KTA1 230240Z 08017KT 09/08 A297 RMK A01 T00930080  RH  092%=      5-min Rain = 0
KTA1 230241Z 08017G22KT 09/08 A297 RMK A01 T00930080  RH  092%=      5-min Rain = 0
KTA1 230242Z 08019KT 09/08 A297 RMK A01 T00930081  RH  092%=      5-min Rain = 0
KTA1 230243Z 08018KT 09/08 A297 RMK A01 T00930081  RH  092%=      5-min Rain = 0
KTA1 230244Z 08019KT 09/08 A297 RMK A01 T00930081  RH  092%=      5-min Rain = 0
KTA1 230245Z 08018KT 09/08 A297 RMK A01 T00930081  RH  092%=      5-min Rain = 0
KTA1 230246Z 08017KT 09/08 A297 RMK A01 T00930081  RH  092%=      5-min Rain = 0
KTA1 230247Z 08020KT 09/08 A297 RMK A01 T00930081  RH  092%=      5-min Rain = 0
KTA1 230248Z 08018KT 09/08 A297 RMK A01 T00930081  RH  092%=      5-min Rain = 0
KTA1 230249Z 08017KT 09/08 A297 RMK A01 T00930082  RH  092%=      5-min Rain = 0
KTA1 230250Z 08018KT 09/08 A297 RMK A01 T00930081  RH  092%=      5-min Rain = 0
KTA1 230251Z 08019KT 09/08 A297 RMK A01 T00930081  RH  092%=      5-min Rain = 0
KTA1 230252Z 08017KT 09/08 A297 RMK A01 T00940082  RH  093%=      5-min Rain = 0
KTA1 230253Z 08017G22KT 09/08 A297 RMK A01 T00930082  RH  093%=      5-min Rain = 0
KTA1 230254Z 08017KT 09/08 A297 RMK A01 T00930082  RH  092%=      5-min Rain = 0
KTA1 230255Z 08017KT 09/08 A297 RMK A01 T00930082  RH  093%=      5-min Rain = 0
KTA1 230256Z 08019KT 09/08 A297 RMK A01 T00930082  RH  093%=      5-min Rain = 0
KTA1 230257Z 08017KT 09/08 A2969 RMK A01 T00930083  RH  093%=      5-min Rain = 0
KTA1 230258Z 08018KT 09/08 A2969 RMK A01 T00940083  RH  093%=      5-min Rain = 0
KTA1 230259Z 08017KT 09/08 A2969 RMK A01 T00930082  RH  093%=      5-min Rain = 0
KTA1 230300Z 08017KT 09/08 A2969 RMK A01 T00940083  RH  093%=      5-min Rain = 0
KTA1 230301Z 08016KT 09/08 A2969 RMK A01 T00940083  RH  093%=      5-min Rain = 0
KTA1 230302Z 08018KT 09/08 A297 RMK A01 T00930083  RH  093%=      5-min Rain = 0
KTA1 230303Z 09019KT 09/08 A2969 RMK A01 T00940083  RH  093%=      5-min Rain = 0
KTA1 230304Z 09019KT 09/08 A2969 RMK A01 T00940084  RH  093%=      5-min Rain = 0
KTA1 230305Z 09018KT 09/08 A2969 RMK A01 T00940084  RH  093%=      5-min Rain = 0
KTA1 230306Z 09017KT 09/08 A2969 RMK A01 T00940084  RH  093%=      5-min Rain = 0
KTA1 230307Z 09018KT 10/08 A2969 RMK A01 T00950084  RH  093%=      5-min Rain = 0
KTA1 230308Z 09019KT 10/09 A2969 RMK A01 T00950085  RH  093%=      5-min Rain = 0
KTA1 230309Z 09017KT 10/09 A2969 RMK A01 T00950085  RH  093%=      5-min Rain = 0
KTA1 230310Z 09018KT 10/09 A2969 RMK A01 T00950085  RH  093%=      5-min Rain = 0
KTA1 230311Z 09019KT 10/09 A2969 RMK A01 T00960085  RH  093%=      5-min Rain = 0
KTA1 230312Z 09018KT 10/09 A2969 RMK A01 T00960085  RH  093%=      5-min Rain = 0
KTA1 230313Z 09018KT 10/09 A2969 RMK A01 T00960086  RH  093%=      5-min Rain = 0
KTA1 230314Z 09019KT 10/09 A2969 RMK A01 T00960086  RH  093%=      5-min Rain = 0
KTA1 230315Z 09019KT 10/09 A2969 RMK A01 T00960086  RH  093%=      5-min Rain = 0
KTA1 230316Z 09017KT 10/09 A2969 RMK A01 T00960086  RH  093%=      5-min Rain = 0
KTA1 230317Z 09018KT 10/09 A2969 RMK A01 T00970086  RH  093%=      5-min Rain = 0
KTA1 230318Z 09018KT 10/09 A2969 RMK A01 T00960086  RH  093%=      5-min Rain = 0
KTA1 230319Z 09019KT 10/09 A2969 RMK A01 T00970087  RH  093%=      5-min Rain = 0
KTA1 230320Z 09019KT 10/09 A2969 RMK A01 T00970087  RH  093%=      5-min Rain = 0
KTA1 230321Z 09018KT 10/09 A2969 RMK A01 T00970087  RH  093%=      5-min Rain = 0
KTA1 230322Z 09017KT 10/09 A2969 RMK A01 T00970087  RH  093%=      5-min Rain = 0
KTA1 230323Z 09017KT 10/09 A2969 RMK A01 T00980087  RH  093%=      5-min Rain = 0
KTA1 230324Z 09018KT 10/09 A2969 RMK A01 T00980087  RH  093%=      5-min Rain = 0
KTA1 230325Z 09017KT 10/09 A2969 RMK A01 T00980087  RH  093%=      5-min Rain = 0
KTA1 230326Z 09018KT 10/09 A2969 RMK A01 T00980088  RH  093%=      5-min Rain = 0
KTA1 230327Z 09018KT 10/09 A2969 RMK A01 T00990088  RH  093%=      5-min Rain = 0
KTA1 230328Z 09017KT 10/09 A2969 RMK A01 T00990088  RH  093%=      5-min Rain = 0
KTA1 230329Z 09018KT 10/09 A2969 RMK A01 T00990088  RH  093%=      5-min Rain = 0
KTA1 230330Z 09016KT 10/09 A2969 RMK A01 T01000088  RH  093%=      5-min Rain = 0
KTA1 230331Z 09015KT 10/09 A2969 RMK A01 T00990088  RH  093%=      5-min Rain = 0
KTA1 230332Z 09016KT 10/09 A2969 RMK A01 T01000088  RH  093%=      5-min Rain = 0
KTA1 230333Z 09016KT 10/09 A2969 RMK A01 T01000088  RH  093%=      5-min Rain = 0
KTA1 230334Z 09018KT 10/09 A2969 RMK A01 T01000088  RH  093%=      5-min Rain = 0
KTA1 230335Z 09016KT 10/09 A2969 RMK A01 T01000088  RH  092%=      5-min Rain = 0
KTA1 230336Z 09017KT 10/09 A2969 RMK A01 T01000088  RH  092%=      5-min Rain = 0
KTA1 230337Z 09016KT 10/09 A2969 RMK A01 T01010089  RH  092%=      5-min Rain = 0
KTA1 230338Z 10016KT 10/09 A2969 RMK A01 T01000088  RH  092%=      5-min Rain = 0
KTA1 230339Z 09017KT 10/09 A2969 RMK A01 T01010088  RH  092%=      5-min Rain = 0
KTA1 230340Z 09016KT 10/09 A2969 RMK A01 T01010089  RH  092%=      5-min Rain = 0
KTA1 230341Z 09016KT 10/09 A2969 RMK A01 T01010088  RH  092%=      5-min Rain = 0
KTA1 230342Z 09016KT 10/09 A2969 RMK A01 T01010089  RH  092%=      5-min Rain = 0
KTA1 230343Z 09015KT 10/09 A2969 RMK A01 T01020089  RH  092%=      5-min Rain = 0
KTA1 230344Z 10015KT 10/09 A2969 RMK A01 T01020089  RH  091%=      5-min Rain = 0
KTA1 230345Z 09015KT 10/09 A2969 RMK A01 T01020088  RH  091%=      5-min Rain = 0
KTA1 230346Z 10015KT 10/09 A2969 RMK A01 T01020088  RH  091%=      5-min Rain = 0
KTA1 230347Z 09014KT 10/09 A2969 RMK A01 T01020088  RH  091%=      5-min Rain = 0
KTA1 230348Z 09013KT 10/09 A2969 RMK A01 T01020088  RH  091%=      5-min Rain = 0
KTA1 230349Z 09014KT 10/09 A2969 RMK A01 T01020087  RH  091%=      5-min Rain = 0
KTA1 230350Z 09014KT 10/09 A2969 RMK A01 T01020088  RH  091%=      5-min Rain = 0
KTA1 230351Z 09015KT 10/09 A2969 RMK A01 T01020088  RH  091%=      5-min Rain = 0
KTA1 230352Z 09015KT 10/09 A2969 RMK A01 T01020088  RH  091%=      5-min Rain = 0
KTA1 230353Z 09013KT 10/09 A2968 RMK A01 T01030088  RH  090%=      5-min Rain = 0
KTA1 230354Z 09015KT 10/09 A2968 RMK A01 T01030087  RH  090%=      5-min Rain = 0
KTA1 230355Z 09015KT 10/09 A2968 RMK A01 T01030088  RH  090%=      5-min Rain = 0
KTA1 230356Z 09015KT 10/09 A2968 RMK A01 T01040088  RH  090%=      5-min Rain = 0
KTA1 230357Z 09013KT 10/09 A2968 RMK A01 T01040088  RH  090%=      5-min Rain = 0
KTA1 230358Z 09013KT 10/09 A2968 RMK A01 T01040088  RH  089%=      5-min Rain = 0
KTA1 230359Z 09013KT 11/09 A2968 RMK A01 T01050088  RH  089%=      5-min Rain = 0
KTA1 230400Z 09014KT 11/09 A2968 RMK A01 T01050088  RH  089%=      5-min Rain = 0
KTA1 230401Z 09013KT 11/09 A2968 RMK A01 T01050088  RH  089%=      5-min Rain = 0
KTA1 230402Z 09013KT 11/09 A2968 RMK A01 T01050088  RH  089%=      5-min Rain = 0
KTA1 230403Z 09013KT 11/09 A2968 RMK A01 T01050088  RH  089%=      5-min Rain = 0
KTA1 230404Z 09013KT 11/09 A2968 RMK A01 T01060088  RH  089%=      5-min Rain = 0
KTA1 230405Z 09014KT 11/09 A2968 RMK A01 T01050088  RH  089%=      5-min Rain = 0
KTA1 230406Z 09013KT 11/09 A2968 RMK A01 T01060088  RH  089%=      5-min Rain = 0
KTA1 230407Z 09012KT 11/09 A2968 RMK A01 T01060088  RH  088%=      5-min Rain = 0
KTA1 230408Z 09012KT 11/09 A2968 RMK A01 T01060088  RH  088%=      5-min Rain = 0
KTA1 230409Z 09013KT 11/09 A2968 RMK A01 T01070088  RH  088%=      5-min Rain = 0
KTA1 230410Z 09013KT 11/09 A2968 RMK A01 T01070087  RH  088%=      5-min Rain = 0
KTA1 230411Z 09013KT 11/09 A2968 RMK A01 T01070087  RH  087%=      5-min Rain = 0
KTA1 230412Z 09013KT 11/09 A2968 RMK A01 T01080088  RH  087%=      5-min Rain = 0
KTA1 230413Z 09013KT 11/09 A2968 RMK A01 T01090088  RH  087%=      5-min Rain = 0
KTA1 230414Z 09014KT 11/09 A2968 RMK A01 T01090088  RH  086%=      5-min Rain = 0
KTA1 230415Z 09014KT 11/09 A2968 RMK A01 T01100087  RH  086%=      5-min Rain = 0
KTA1 230416Z 10012KT 11/09 A2968 RMK A01 T01100088  RH  086%=      5-min Rain = 0
KTA1 230417Z 10012KT 11/09 A2968 RMK A01 T01100087  RH  086%=      5-min Rain = 0
KTA1 230418Z 10013KT 11/09 A2968 RMK A01 T01100087  RH  086%=      5-min Rain = 0
KTA1 230419Z 10014KT 11/09 A2968 RMK A01 T01100088  RH  086%=      5-min Rain = 0
KTA1 230420Z 10013KT 11/09 A2968 RMK A01 T01100087  RH  086%=      5-min Rain = 0
KTA1 230421Z 10012KT 11/09 A2968 RMK A01 T01100087  RH  086%=      5-min Rain = 0
KTA1 230422Z 10011KT 11/09 A2968 RMK A01 T01110087  RH  085%=      5-min Rain = 0
KTA1 230423Z 10012KT 11/09 A2968 RMK A01 T01110087  RH  085%=      5-min Rain = 0
KTA1 230424Z 10012KT 11/09 A2968 RMK A01 T01100087  RH  086%=      5-min Rain = 0
KTA1 230425Z 10013KT 11/09 A2968 RMK A01 T01100087  RH  085%=      5-min Rain = 0
KTA1 230426Z 10014KT 11/09 A2968 RMK A01 T01100087  RH  085%=      5-min Rain = 0
KTA1 230427Z 11013KT 11/09 A2968 RMK A01 T01110086  RH  085%=      5-min Rain = 0
KTA1 230428Z 10012KT 11/09 A2968 RMK A01 T01120087  RH  085%=      5-min Rain = 0
KTA1 230429Z 10012KT 11/09 A2968 RMK A01 T01110086  RH  084%=      5-min Rain = 0
KTA1 230430Z 11014KT 11/09 A2968 RMK A01 T01120086  RH  084%=      5-min Rain = 0
KTA1 230431Z 11014KT 11/09 A2968 RMK A01 T01120086  RH  084%=      5-min Rain = 0
KTA1 230432Z 11012KT 11/09 A2968 RMK A01 T01120086  RH  084%=      5-min Rain = 0
KTA1 230433Z 11012KT 11/09 A2968 RMK A01 T01120086  RH  084%=      5-min Rain = 0
KTA1 230434Z 10012KT 11/09 A2968 RMK A01 T01120086  RH  084%=      5-min Rain = 0
KTA1 230435Z 11011KT 11/09 A2968 RMK A01 T01120086  RH  084%=      5-min Rain = 0
KTA1 230436Z 11010KT 11/09 A2968 RMK A01 T01120086  RH  084%=      5-min Rain = 0
KTA1 230437Z 11012KT 11/09 A2968 RMK A01 T01120085  RH  083%=      5-min Rain = 0
KTA1 230438Z 11013KT 11/09 A2968 RMK A01 T01120085  RH  083%=      5-min Rain = 0
KTA1 230439Z 11013G18KT 11/08 A2968 RMK A01 T01140084  RH  082%=      5-min Rain = 0
KTA1 230440Z 11013G18KT 12/08 A2968 RMK A01 T01150084  RH  081%=      5-min Rain = 0
KTA1 230441Z 11013KT 12/08 A2968 RMK A01 T01150083  RH  081%=      5-min Rain = 0
KTA1 230442Z 11016KT 12/08 A2968 RMK A01 T01170083  RH  080%=      5-min Rain = 0
KTA1 230443Z 12015KT 12/08 A2968 RMK A01 T01180083  RH  079%=      5-min Rain = 0
KTA1 230444Z 11017KT 12/08 A2968 RMK A01 T01190083  RH  079%=      5-min Rain = 0
KTA1 230445Z 12017KT 12/08 A2969 RMK A01 T01200083  RH  078%=      5-min Rain = 0
KTA1 230446Z 12016KT 12/08 A2969 RMK A01 T01200083  RH  078%=      5-min Rain = 0
KTA1 230447Z 12017KT 12/08 A2969 RMK A01 T01210083  RH  077%=      5-min Rain = 0
KTA1 230448Z 12016G21KT 12/08 A2969 RMK A01 T01210083  RH  077%=      5-min Rain = 0
KTA1 230449Z 12016KT 12/08 A2968 RMK A01 T01220083  RH  077%=      5-min Rain = 0
KTA1 230450Z 12016KT 12/08 A2968 RMK A01 T01220082  RH  077%=      5-min Rain = 0
KTA1 230451Z 12019KT 12/08 A2968 RMK A01 T01210082  RH  077%=      5-min Rain = 0
KTA1 230452Z 12018KT 12/08 A2968 RMK A01 T01210082  RH  077%=      5-min Rain = 0
KTA1 230453Z 12017KT 12/08 A2968 RMK A01 T01220082  RH  077%=      5-min Rain = 0
KTA1 230454Z 12017G22KT 12/08 A2968 RMK A01 T01220082  RH  077%=      5-min Rain = 0
KTA1 230455Z 12020KT 12/08 A2968 RMK A01 T01220082  RH  077%=      5-min Rain = 0
KTA1 230456Z 12018G23KT 12/08 A2968 RMK A01 T01210082  RH  077%=      5-min Rain = 0
KTA1 230457Z 12017KT 12/08 A2968 RMK A01 T01220082  RH  077%=      5-min Rain = 0
KTA1 230458Z 12017KT 12/08 A2968 RMK A01 T01210082  RH  077%=      5-min Rain = 0
KTA1 230459Z 12018KT 12/08 A2968 RMK A01 T01210082  RH  077%=      5-min Rain = 0
KTA1 230500Z 12017KT 12/08 A2968 RMK A01 T01210082  RH  077%=      5-min Rain = 0
KTA1 230501Z 12017KT 12/08 A2968 RMK A01 T01210082  RH  077%=      5-min Rain = 0
KTA1 230502Z 12016KT 12/08 A2968 RMK A01 T01210082  RH  077%=      5-min Rain = 0
KTA1 230503Z 12017KT 12/08 A2968 RMK A01 T01200082  RH  078%=      5-min Rain = 0
KTA1 230504Z 12017KT 12/08 A2968 RMK A01 T01190082  RH  078%=      5-min Rain = 0
KTA1 230505Z 12015KT 12/08 A2968 RMK A01 T01190082  RH  078%=      5-min Rain = 0
KTA1 230506Z 12014KT 12/08 A2968 RMK A01 T01190082  RH  078%=      5-min Rain = 0
KTA1 230507Z 12015KT 12/08 A2969 RMK A01 T01180082  RH  078%=      5-min Rain = 0
KTA1 230508Z 12014KT 12/08 A2969 RMK A01 T01180082  RH  079%=      5-min Rain = 0
KTA1 230509Z 12014KT 12/08 A2968 RMK A01 T01170082  RH  079%=      5-min Rain = 0
KTA1 230510Z 12012KT 12/08 A2969 RMK A01 T01170082  RH  079%=      5-min Rain = 0
KTA1 230511Z 13012KT 12/08 A2969 RMK A01 T01160082  RH  079%=      5-min Rain = 0
KTA1 230512Z 13012KT 12/08 A2969 RMK A01 T01160082  RH  080%=      5-min Rain = 0
KTA1 230513Z 13011KT 12/08 A2969 RMK A01 T01160082  RH  080%=      5-min Rain = 0
KTA1 230514Z 13012KT 12/08 A2969 RMK A01 T01150082  RH  080%=      5-min Rain = 0
KTA1 230515Z 13011KT 12/08 A2969 RMK A01 T01150082  RH  080%=      5-min Rain = 0
KTA1 230516Z 13011KT 12/08 A2969 RMK A01 T01150082  RH  080%=      5-min Rain = 0
KTA1 230517Z 13010KT 11/08 A2969 RMK A01 T01140081  RH  080%=      5-min Rain = 0
KTA1 230518Z 13011KT 11/08 A2969 RMK A01 T01130081  RH  081%=      5-min Rain = 0
KTA1 230519Z 13010KT 11/08 A2969 RMK A01 T01130081  RH  081%=      5-min Rain = 0
KTA1 230520Z 13010KT 11/08 A2969 RMK A01 T01130081  RH  081%=      5-min Rain = 0
KTA1 230521Z 13008KT 11/08 A2969 RMK A01 T01130081  RH  081%=      5-min Rain = 0
KTA1 230522Z 14009KT 11/08 A2969 RMK A01 T01130081  RH  081%=      5-min Rain = 0
KTA1 230523Z 13010KT 11/08 A2969 RMK A01 T01130081  RH  081%=      5-min Rain = 0
KTA1 230524Z 14008KT 11/08 A2969 RMK A01 T01130081  RH  080%=      5-min Rain = 0
KTA1 230525Z 14009KT 11/08 A297 RMK A01 T01140081  RH  080%=      5-min Rain = 0
KTA1 230526Z 15008KT 11/08 A2969 RMK A01 T01140081  RH  080%=      5-min Rain = 0
KTA1 230527Z 14009KT 12/08 A297 RMK A01 T01150081  RH  080%=      5-min Rain = 0
KTA1 230528Z 15009KT 12/08 A297 RMK A01 T01150081  RH  079%=      5-min Rain = 0
KTA1 230529Z 15008KT 12/08 A297 RMK A01 T01160081  RH  079%=      5-min Rain = 0
KTA1 230530Z 15007KT 12/08 A297 RMK A01 T01160081  RH  079%=      5-min Rain = 0
KTA1 230531Z 17004KT 12/08 A2971 RMK A01 T01160081  RH  079%=      5-min Rain = 0
KTA1 230532Z 16006KT 12/08 A2971 RMK A01 T01170081  RH  079%=      5-min Rain = 0
KTA1 230533Z 16006KT 12/08 A2971 RMK A01 T01160081  RH  079%=      5-min Rain = 0
KTA1 230534Z 16006KT 12/08 A2971 RMK A01 T01170081  RH  079%=      5-min Rain = 0
KTA1 230535Z 17006KT 12/08 A2971 RMK A01 T01170081  RH  079%=      5-min Rain = 0
KTA1 230536Z 17006KT 12/08 A2971 RMK A01 T01170081  RH  078%=      5-min Rain = 0
KTA1 230537Z 15006KT 12/08 A2971 RMK A01 T01180081  RH  078%=      5-min Rain = 0
KTA1 230538Z 17005KT 12/08 A2971 RMK A01 T01180081  RH  078%=      5-min Rain = 0
KTA1 230539Z 17005KT 12/08 A2972 RMK A01 T01180080  RH  078%=      5-min Rain = 0
KTA1 230540Z 19006KT 12/08 A2973 RMK A01 T01180080  RH  078%=      5-min Rain = 0
KTA1 230541Z 22007KT 12/08 A2974 RMK A01 T01190081  RH  078%=      5-min Rain = 0
KTA1 230542Z 22009KT 12/08 A2974 RMK A01 T01180080  RH  077%=      5-min Rain = 0
KTA1 230543Z 23010KT 12/08 A2975 RMK A01 T01190080  RH  077%=      5-min Rain = 0
KTA1 230544Z 24011KT 12/08 A2975 RMK A01 T01190079  RH  077%=      5-min Rain = 0
KTA1 230545Z 24011KT 12/08 A2976 RMK A01 T01190079  RH  077%=      5-min Rain = 0
KTA1 230546Z 25011KT 12/08 A2976 RMK A01 T01190079  RH  076%=      5-min Rain = 0
KTA1 230547Z 25011KT 12/08 A2976 RMK A01 T01190079  RH  076%=      5-min Rain = 0
KTA1 230548Z 25012KT 12/08 A2976 RMK A01 T01190078  RH  076%=      5-min Rain = 0
KTA1 230549Z 25010KT 12/08 A2976 RMK A01 T01190077  RH  076%=      5-min Rain = 0
KTA1 230550Z 24010KT 12/08 A2976 RMK A01 T01190076  RH  075%=      5-min Rain = 0
KTA1 230551Z 23010KT 12/08 A2976 RMK A01 T01200075  RH  074%=      5-min Rain = 0
KTA1 230552Z 21009KT 12/08 A2976 RMK A01 T01210075  RH  073%=      5-min Rain = 0
KTA1 230553Z 21011KT 12/07 A2975 RMK A01 T01220074  RH  072%=      5-min Rain = 0
KTA1 230554Z 20012KT 12/07 A2975 RMK A01 T01240074  RH  071%=      5-min Rain = 0
KTA1 230555Z 20012KT 13/07 A2975 RMK A01 T01260073  RH  070%=      5-min Rain = 0
KTA1 230556Z 21013KT 13/07 A2975 RMK A01 T01270073  RH  069%=      5-min Rain = 0
KTA1 230557Z 20013KT 13/07 A2975 RMK A01 T01280073  RH  069%=      5-min Rain = 0
KTA1 230558Z 20012G17KT 13/07 A2975 RMK A01 T01280072  RH  068%=      5-min Rain = 0
KTA1 230559Z 20016KT 13/07 A2975 RMK A01 T01290071  RH  068%=      5-min Rain = 0

Page generated in 0.6177 seconds.